Observation data for Castolon 1NW BBNP on 03/05/2021      Previous  Date  Next       Current Mesonet Observations  Soil Data  Daily Summary Page  Observations in Plain Language
KCA2 050600Z 32008KT 22/M06 A3001 RMK A01 T02161056  RH  016%=      5-min Rain = 0
KCA2 050601Z 33009KT 22/M06 A3001 RMK A01 T02171056  RH  016%=      5-min Rain = 0
KCA2 050602Z 33009KT 22/M06 A3001 RMK A01 T02181059  RH  015%=      5-min Rain = 0
KCA2 050603Z 33009KT 22/M06 A3001 RMK A01 T02211060  RH  015%=      5-min Rain = 0
KCA2 050604Z 33012KT 22/M06 A3001 RMK A01 T02221061  RH  014%=      5-min Rain = 0
KCA2 050605Z 34012KT 23/M06 A3001 RMK A01 T02251063  RH  014%=      5-min Rain = 0
KCA2 050606Z 34011KT 23/M06 A3001 RMK A01 T02271063  RH  014%=      5-min Rain = 0
KCA2 050607Z 34012KT 23/M06 A3001 RMK A01 T02271064  RH  014%=      5-min Rain = 0
KCA2 050608Z 34011KT 23/M07 A3001 RMK A01 T02271065  RH  014%=      5-min Rain = 0
KCA2 050609Z 34013KT 23/M07 A3001 RMK A01 T02271065  RH  014%=      5-min Rain = 0
KCA2 050610Z 34010KT 23/M07 A3001 RMK A01 T02271066  RH  014%=      5-min Rain = 0
KCA2 050611Z 34009KT 23/M07 A3001 RMK A01 T02261066  RH  014%=      5-min Rain = 0
KCA2 050612Z 34009KT 23/M07 A3001 RMK A01 T02251066  RH  014%=      5-min Rain = 0
KCA2 050613Z 34010KT 23/M07 A3001 RMK A01 T02251066  RH  014%=      5-min Rain = 0
KCA2 050614Z 34012KT 23/M07 A3001 RMK A01 T02251066  RH  014%=      5-min Rain = 0
KCA2 050615Z 34013KT 23/M07 A3001 RMK A01 T02261068  RH  013%=      5-min Rain = 0
KCA2 050616Z 33012KT 23/M07 A3001 RMK A01 T02261069  RH  013%=      5-min Rain = 0
KCA2 050617Z 33011KT 23/M07 A3001 RMK A01 T02271069  RH  013%=      5-min Rain = 0
KCA2 050618Z 33012KT 23/M07 A3001 RMK A01 T02261069  RH  013%=      5-min Rain = 0
KCA2 050619Z 34010KT 23/M07 A3001 RMK A01 T02261069  RH  013%=      5-min Rain = 0
KCA2 050620Z 34011KT 23/M07 A3001 RMK A01 T02251069  RH  013%=      5-min Rain = 0
KCA2 050621Z 33009KT 23/M07 A3001 RMK A01 T02251069  RH  013%=      5-min Rain = 0
KCA2 050622Z 33010KT 22/M07 A3001 RMK A01 T02241069  RH  013%=      5-min Rain = 0
KCA2 050623Z 33009KT 22/M07 A3001 RMK A01 T02241069  RH  014%=      5-min Rain = 0
KCA2 050624Z 33010KT 22/M07 A3001 RMK A01 T02231068  RH  014%=      5-min Rain = 0
KCA2 050625Z 33009KT 22/M07 A3001 RMK A01 T02231069  RH  014%=      5-min Rain = 0
KCA2 050626Z 33010KT 22/M07 A3001 RMK A01 T02231068  RH  014%=      5-min Rain = 0
KCA2 050627Z 33009KT 22/M07 A3001 RMK A01 T02231069  RH  014%=      5-min Rain = 0
KCA2 050628Z 33009KT 22/M07 A3001 RMK A01 T02231069  RH  014%=      5-min Rain = 0
KCA2 050629Z 33009KT 22/M07 A3001 RMK A01 T02221069  RH  014%=      5-min Rain = 0
KCA2 050630Z 32010KT 22/M07 A3001 RMK A01 T02211069  RH  014%=      5-min Rain = 0
KCA2 050631Z 32009KT 22/M07 A3001 RMK A01 T02201069  RH  014%=      5-min Rain = 0
KCA2 050632Z 32009KT 22/M07 A3001 RMK A01 T02191069  RH  014%=      5-min Rain = 0
KCA2 050633Z 32009KT 22/M07 A3001 RMK A01 T02181069  RH  014%=      5-min Rain = 0
KCA2 050634Z 32009KT 22/M07 A3001 RMK A01 T02171068  RH  014%=      5-min Rain = 0
KCA2 050635Z 32008KT 22/M07 A3001 RMK A01 T02151068  RH  014%=      5-min Rain = 0
KCA2 050636Z 33008KT 22/M07 A3001 RMK A01 T02151068  RH  014%=      5-min Rain = 0
KCA2 050637Z 33008KT 21/M07 A3001 RMK A01 T02141068  RH  014%=      5-min Rain = 0
KCA2 050638Z 32007KT 21/M07 A3001 RMK A01 T02141068  RH  014%=      5-min Rain = 0
KCA2 050639Z 33007KT 21/M07 A3001 RMK A01 T02141068  RH  015%=      5-min Rain = 0
KCA2 050640Z 33008KT 21/M07 A3001 RMK A01 T02131068  RH  015%=      5-min Rain = 0
KCA2 050641Z 33008KT 21/M07 A3001 RMK A01 T02121068  RH  015%=      5-min Rain = 0
KCA2 050642Z 33009KT 21/M07 A3001 RMK A01 T02121069  RH  014%=      5-min Rain = 0
KCA2 050643Z 33008KT 21/M07 A3001 RMK A01 T02131070  RH  014%=      5-min Rain = 0
KCA2 050644Z 33007KT 21/M07 A3001 RMK A01 T02131072  RH  014%=      5-min Rain = 0
KCA2 050645Z 33006KT 21/M07 A3001 RMK A01 T02141072  RH  014%=      5-min Rain = 0
KCA2 050646Z 33007KT 21/M07 A3001 RMK A01 T02141073  RH  014%=      5-min Rain = 0
KCA2 050647Z 33007KT 21/M07 A3001 RMK A01 T02141074  RH  014%=      5-min Rain = 0
KCA2 050648Z 33005KT 21/M07 A3001 RMK A01 T02141074  RH  014%=      5-min Rain = 0
KCA2 050649Z 33005KT 21/M07 A3001 RMK A01 T02131072  RH  014%=      5-min Rain = 0
KCA2 050650Z 31003KT 21/M07 A3001 RMK A01 T02121072  RH  014%=      5-min Rain = 0
KCA2 050651Z 30003KT 21/M07 A3001 RMK A01 T02091071  RH  015%=      5-min Rain = 0
KCA2 050652Z 29002KT 21/M07 A3001 RMK A01 T02071072  RH  015%=      5-min Rain = 0
KCA2 050653Z 30003KT 21/M07 A3001 RMK A01 T02051071  RH  015%=      5-min Rain = 0
KCA2 050654Z 29003KT 20/M07 A3002 RMK A01 T02041071  RH  015%=      5-min Rain = 0
KCA2 050655Z 30003KT 20/M07 A3002 RMK A01 T02041071  RH  015%=      5-min Rain = 0
KCA2 050656Z 28002KT 20/M07 A3002 RMK A01 T02041070  RH  015%=      5-min Rain = 0
KCA2 050657Z 28004KT 20/M07 A3002 RMK A01 T02021068  RH  016%=      5-min Rain = 0
KCA2 050658Z 28004KT 20/M07 A3002 RMK A01 T02001068  RH  016%=      5-min Rain = 0
KCA2 050659Z 28005KT 20/M07 A3002 RMK A01 T01981066  RH  016%=      5-min Rain = 0
KCA2 050700Z 28006KT 20/M07 A3002 RMK A01 T01951066  RH  016%=      5-min Rain = 0
KCA2 050701Z 28006KT 19/M07 A3002 RMK A01 T01931067  RH  017%=      5-min Rain = 0
KCA2 050702Z 28007KT 19/M07 A3002 RMK A01 T01911068  RH  017%=      5-min Rain = 0
KCA2 050703Z 29006KT 19/M07 A3002 RMK A01 T01911069  RH  017%=      5-min Rain = 0
KCA2 050704Z 29006KT 19/M07 A3003 RMK A01 T01911068  RH  017%=      5-min Rain = 0
KCA2 050705Z 29007KT 19/M07 A3003 RMK A01 T01901068  RH  017%=      5-min Rain = 0
KCA2 050706Z 28007KT 19/M07 A3003 RMK A01 T01891068  RH  017%=      5-min Rain = 0
KCA2 050707Z 28007KT 19/M07 A3003 RMK A01 T01881069  RH  017%=      5-min Rain = 0
KCA2 050708Z 28008KT 19/M07 A3003 RMK A01 T01881071  RH  017%=      5-min Rain = 0
KCA2 050709Z 28008KT 19/M07 A3003 RMK A01 T01891072  RH  016%=      5-min Rain = 0
KCA2 050710Z 28008KT 19/M07 A3003 RMK A01 T01921073  RH  016%=      5-min Rain = 0
KCA2 050711Z 29007KT 19/M07 A3003 RMK A01 T01931073  RH  016%=      5-min Rain = 0
KCA2 050712Z 28007KT 19/M07 A3003 RMK A01 T01941073  RH  016%=      5-min Rain = 0
KCA2 050713Z 29007KT 19/M07 A3003 RMK A01 T01941073  RH  016%=      5-min Rain = 0
KCA2 050714Z 28007KT 19/M07 A3003 RMK A01 T01931073  RH  016%=      5-min Rain = 0
KCA2 050715Z 28007KT 19/M07 A3003 RMK A01 T01931073  RH  016%=      5-min Rain = 0
KCA2 050716Z 29007KT 19/M07 A3003 RMK A01 T01931073  RH  016%=      5-min Rain = 0
KCA2 050717Z 29007KT 19/M07 A3003 RMK A01 T01931073  RH  016%=      5-min Rain = 0
KCA2 050718Z 29007KT 19/M07 A3003 RMK A01 T01921073  RH  016%=      5-min Rain = 0
KCA2 050719Z 29007KT 19/M07 A3002 RMK A01 T01911073  RH  016%=      5-min Rain = 0
KCA2 050720Z 29007KT 19/M07 A3002 RMK A01 T01901073  RH  016%=      5-min Rain = 0
KCA2 050721Z 29007KT 19/M07 A3002 RMK A01 T01881073  RH  016%=      5-min Rain = 0
KCA2 050722Z 29008KT 19/M07 A3002 RMK A01 T01871073  RH  016%=      5-min Rain = 0
KCA2 050723Z 29008KT 19/M07 A3002 RMK A01 T01871074  RH  016%=      5-min Rain = 0
KCA2 050724Z 29008KT 19/M08 A3002 RMK A01 T01881075  RH  016%=      5-min Rain = 0
KCA2 050725Z 29007KT 19/M07 A3002 RMK A01 T01891074  RH  016%=      5-min Rain = 0
KCA2 050726Z 29006KT 19/M07 A3002 RMK A01 T01891074  RH  016%=      5-min Rain = 0
KCA2 050727Z 29006KT 19/M07 A3002 RMK A01 T01891074  RH  016%=      5-min Rain = 0
KCA2 050728Z 29005KT 19/M08 A3002 RMK A01 T01891075  RH  016%=      5-min Rain = 0
KCA2 050729Z 29004KT 19/M08 A3002 RMK A01 T01901075  RH  016%=      5-min Rain = 0
KCA2 050730Z 28006KT 19/M08 A3002 RMK A01 T01901075  RH  016%=      5-min Rain = 0
KCA2 050731Z 29006KT 19/M07 A3002 RMK A01 T01901074  RH  016%=      5-min Rain = 0
KCA2 050732Z 29007KT 19/M07 A3002 RMK A01 T01881073  RH  016%=      5-min Rain = 0
KCA2 050733Z 29006KT 19/M07 A3002 RMK A01 T01861073  RH  017%=      5-min Rain = 0
KCA2 050734Z 29006KT 18/M07 A3002 RMK A01 T01841074  RH  017%=      5-min Rain = 0
KCA2 050735Z 29006KT 18/M07 A3002 RMK A01 T01831073  RH  017%=      5-min Rain = 0
KCA2 050736Z 29005KT 18/M07 A3002 RMK A01 T01831074  RH  017%=      5-min Rain = 0
KCA2 050737Z 29006KT 18/M07 A3002 RMK A01 T01831074  RH  017%=      5-min Rain = 0
KCA2 050738Z 30006KT 18/M07 A3002 RMK A01 T01831074  RH  017%=      5-min Rain = 0
KCA2 050739Z 30005KT 19/M08 A3002 RMK A01 T01851075  RH  016%=      5-min Rain = 0
KCA2 050740Z 31005KT 19/M08 A3002 RMK A01 T01861075  RH  016%=      5-min Rain = 0
KCA2 050741Z 30005KT 19/M08 A3002 RMK A01 T01881077  RH  016%=      5-min Rain = 0
KCA2 050742Z 30006KT 19/M08 A3002 RMK A01 T01891076  RH  016%=      5-min Rain = 0
KCA2 050743Z 31005KT 19/M08 A3002 RMK A01 T01891077  RH  016%=      5-min Rain = 0
KCA2 050744Z 32005KT 19/M08 A3002 RMK A01 T01891077  RH  016%=      5-min Rain = 0
KCA2 050745Z 30005KT 19/M08 A3002 RMK A01 T01891077  RH  016%=      5-min Rain = 0
KCA2 050746Z 30005KT 19/M08 A3002 RMK A01 T01891077  RH  016%=      5-min Rain = 0
KCA2 050747Z 29006KT 19/M08 A3002 RMK A01 T01861075  RH  016%=      5-min Rain = 0
KCA2 050748Z 31006KT 18/M08 A3003 RMK A01 T01831077  RH  016%=      5-min Rain = 0
KCA2 050749Z 30005KT 18/M08 A3003 RMK A01 T01831076  RH  016%=      5-min Rain = 0
KCA2 050750Z 30006KT 18/M08 A3003 RMK A01 T01841077  RH  016%=      5-min Rain = 0
KCA2 050751Z 30007KT 19/M08 A3003 RMK A01 T01851077  RH  016%=      5-min Rain = 0
KCA2 050752Z 29007KT 19/M08 A3003 RMK A01 T01851077  RH  016%=      5-min Rain = 0
KCA2 050753Z 29007KT 18/M08 A3003 RMK A01 T01841076  RH  016%=      5-min Rain = 0
KCA2 050754Z 29007KT 18/M08 A3003 RMK A01 T01831077  RH  016%=      5-min Rain = 0
KCA2 050755Z 29008KT 18/M08 A3003 RMK A01 T01831077  RH  016%=      5-min Rain = 0
KCA2 050756Z 28007KT 18/M08 A3003 RMK A01 T01821078  RH  016%=      5-min Rain = 0
KCA2 050757Z 28007KT 18/M08 A3003 RMK A01 T01821078  RH  016%=      5-min Rain = 0
KCA2 050758Z 29007KT 18/M08 A3003 RMK A01 T01821078  RH  016%=      5-min Rain = 0
KCA2 050759Z 29007KT 18/M08 A3003 RMK A01 T01821078  RH  016%=      5-min Rain = 0
KCA2 050800Z 29007KT 18/M08 A3003 RMK A01 T01811078  RH  016%=      5-min Rain = 0
KCA2 050801Z 30006KT 18/M08 A3003 RMK A01 T01811077  RH  016%=      5-min Rain = 0
KCA2 050802Z 30006KT 18/M08 A3003 RMK A01 T01801077  RH  017%=      5-min Rain = 0
KCA2 050803Z 30006KT 18/M08 A3003 RMK A01 T01801078  RH  017%=      5-min Rain = 0
KCA2 050804Z 30006KT 18/M08 A3003 RMK A01 T01811078  RH  016%=      5-min Rain = 0
KCA2 050805Z 30006KT 18/M08 A3003 RMK A01 T01821078  RH  016%=      5-min Rain = 0
KCA2 050806Z 31007KT 18/M08 A3003 RMK A01 T01831077  RH  016%=      5-min Rain = 0
KCA2 050807Z 30007KT 18/M08 A3003 RMK A01 T01831078  RH  016%=      5-min Rain = 0
KCA2 050808Z 30007KT 18/M08 A3003 RMK A01 T01831077  RH  016%=      5-min Rain = 0
KCA2 050809Z 31007KT 18/M08 A3003 RMK A01 T01821077  RH  016%=      5-min Rain = 0
KCA2 050810Z 30006KT 18/M08 A3004 RMK A01 T01821078  RH  016%=      5-min Rain = 0
KCA2 050811Z 30006KT 18/M08 A3004 RMK A01 T01831078  RH  016%=      5-min Rain = 0
KCA2 050812Z 30006KT 18/M08 A3004 RMK A01 T01831077  RH  016%=      5-min Rain = 0
KCA2 050813Z 30006KT 18/M08 A3004 RMK A01 T01821077  RH  016%=      5-min Rain = 0
KCA2 050814Z 31006KT 18/M08 A3004 RMK A01 T01801077  RH  017%=      5-min Rain = 0
KCA2 050815Z 31006KT 18/M08 A3004 RMK A01 T01801077  RH  017%=      5-min Rain = 0
KCA2 050816Z 31005KT 18/M08 A3004 RMK A01 T01821078  RH  016%=      5-min Rain = 0
KCA2 050817Z 31005KT 18/M08 A3004 RMK A01 T01831078  RH  016%=      5-min Rain = 0
KCA2 050818Z 31005KT 18/M08 A3004 RMK A01 T01841078  RH  016%=      5-min Rain = 0
KCA2 050819Z 30005KT 18/M08 A3004 RMK A01 T01841078  RH  016%=      5-min Rain = 0
KCA2 050820Z 29006KT 18/M08 A3003 RMK A01 T01831076  RH  016%=      5-min Rain = 0
KCA2 050821Z 29007KT 18/M08 A3003 RMK A01 T01791077  RH  017%=      5-min Rain = 0
KCA2 050822Z 29007KT 18/M08 A3003 RMK A01 T01771076  RH  017%=      5-min Rain = 0
KCA2 050823Z 29007KT 18/M08 A3003 RMK A01 T01761077  RH  017%=      5-min Rain = 0
KCA2 050824Z 29007KT 18/M08 A3003 RMK A01 T01751075  RH  017%=      5-min Rain = 0
KCA2 050825Z 28008KT 17/M07 A3003 RMK A01 T01721074  RH  018%=      5-min Rain = 0
KCA2 050826Z 28009KT 17/M08 A3003 RMK A01 T01691075  RH  018%=      5-min Rain = 0
KCA2 050827Z 29009KT 17/M08 A3003 RMK A01 T01681075  RH  018%=      5-min Rain = 0
KCA2 050828Z 29008KT 17/M08 A3004 RMK A01 T01681076  RH  018%=      5-min Rain = 0
KCA2 050829Z 29007KT 17/M08 A3004 RMK A01 T01711076  RH  018%=      5-min Rain = 0
KCA2 050830Z 29007KT 17/M08 A3004 RMK A01 T01731076  RH  018%=      5-min Rain = 0
KCA2 050831Z 29008KT 17/M08 A3004 RMK A01 T01721076  RH  018%=      5-min Rain = 0
KCA2 050832Z 29009KT 17/M08 A3004 RMK A01 T01711077  RH  018%=      5-min Rain = 0
KCA2 050833Z 29008KT 17/M08 A3004 RMK A01 T01711077  RH  018%=      5-min Rain = 0
KCA2 050834Z 29008KT 17/M08 A3004 RMK A01 T01721078  RH  017%=      5-min Rain = 0
KCA2 050835Z 29008KT 17/M08 A3004 RMK A01 T01721078  RH  017%=      5-min Rain = 0
KCA2 050836Z 29008KT 17/M08 A3004 RMK A01 T01731078  RH  017%=      5-min Rain = 0
KCA2 050837Z 29009KT 17/M08 A3004 RMK A01 T01721079  RH  017%=      5-min Rain = 0
KCA2 050838Z 30008KT 17/M08 A3004 RMK A01 T01721079  RH  017%=      5-min Rain = 0
KCA2 050839Z 30006KT 17/M08 A3004 RMK A01 T01731080  RH  017%=      5-min Rain = 0
KCA2 050840Z 30005KT 17/M08 A3004 RMK A01 T01741080  RH  017%=      5-min Rain = 0
KCA2 050841Z 28006KT 17/M08 A3004 RMK A01 T01741079  RH  017%=      5-min Rain = 0
KCA2 050842Z 28007KT 17/M08 A3004 RMK A01 T01721077  RH  017%=      5-min Rain = 0
KCA2 050843Z 28007KT 17/M08 A3004 RMK A01 T01681076  RH  018%=      5-min Rain = 0
KCA2 050844Z 28009KT 17/M08 A3004 RMK A01 T01651077  RH  018%=      5-min Rain = 0
KCA2 050845Z 28009KT 17/M08 A3004 RMK A01 T01651078  RH  018%=      5-min Rain = 0
KCA2 050846Z 29009KT 17/M08 A3004 RMK A01 T01661076  RH  018%=      5-min Rain = 0
KCA2 050847Z 29007KT 16/M08 A3004 RMK A01 T01641077  RH  018%=      5-min Rain = 0
KCA2 050848Z 29006KT 16/M08 A3004 RMK A01 T01631077  RH  019%=      5-min Rain = 0
KCA2 050849Z 29006KT 16/M08 A3004 RMK A01 T01621076  RH  019%=      5-min Rain = 0
KCA2 050850Z 28007KT 16/M08 A3004 RMK A01 T01601076  RH  019%=      5-min Rain = 0
KCA2 050851Z 28007KT 16/M08 A3003 RMK A01 T01601076  RH  019%=      5-min Rain = 0
KCA2 050852Z 28007KT 16/M08 A3003 RMK A01 T01591077  RH  019%=      5-min Rain = 0
KCA2 050853Z 28007KT 16/M08 A3003 RMK A01 T01581077  RH  019%=      5-min Rain = 0
KCA2 050854Z 28008KT 16/M08 A3003 RMK A01 T01581077  RH  019%=      5-min Rain = 0
KCA2 050855Z 28008KT 16/M08 A3003 RMK A01 T01581077  RH  019%=      5-min Rain = 0
KCA2 050856Z 28008KT 16/M08 A3003 RMK A01 T01581077  RH  019%=      5-min Rain = 0
KCA2 050857Z 28008KT 16/M08 A3003 RMK A01 T01571078  RH  019%=      5-min Rain = 0
KCA2 050858Z 28008KT 16/M08 A3003 RMK A01 T01571078  RH  019%=      5-min Rain = 0
KCA2 050859Z 29007KT 16/M08 A3003 RMK A01 T01571079  RH  019%=      5-min Rain = 0
KCA2 050900Z 29008KT 16/M08 A3003 RMK A01 T01581079  RH  019%=      5-min Rain = 0
KCA2 050901Z 29009KT 16/M08 A3003 RMK A01 T01581079  RH  019%=      5-min Rain = 0
KCA2 050902Z 29009KT 16/M08 A3003 RMK A01 T01581080  RH  019%=      5-min Rain = 0
KCA2 050903Z 29010KT 16/M08 A3003 RMK A01 T01601080  RH  018%=      5-min Rain = 0
KCA2 050904Z 29011KT 16/M08 A3003 RMK A01 T01621081  RH  018%=      5-min Rain = 0
KCA2 050905Z 29011KT 16/M08 A3003 RMK A01 T01641081  RH  018%=      5-min Rain = 0
KCA2 050906Z 29012KT 17/M08 A3003 RMK A01 T01651082  RH  018%=      5-min Rain = 0
KCA2 050907Z 29012KT 17/M08 A3003 RMK A01 T01651083  RH  017%=      5-min Rain = 0
KCA2 050908Z 29011KT 17/M08 A3003 RMK A01 T01671084  RH  017%=      5-min Rain = 0
KCA2 050909Z 29011KT 17/M08 A3003 RMK A01 T01671084  RH  017%=      5-min Rain = 0
KCA2 050910Z 30010KT 17/M08 A3003 RMK A01 T01671084  RH  017%=      5-min Rain = 0
KCA2 050911Z 30010KT 17/M08 A3004 RMK A01 T01671084  RH  017%=      5-min Rain = 0
KCA2 050912Z 30010KT 17/M08 A3004 RMK A01 T01671084  RH  017%=      5-min Rain = 0
KCA2 050913Z 30010KT 17/M08 A3004 RMK A01 T01671084  RH  017%=      5-min Rain = 0
KCA2 050914Z 30012KT 17/M09 A3004 RMK A01 T01671085  RH  017%=      5-min Rain = 0
KCA2 050915Z 30010KT 17/M09 A3004 RMK A01 T01681086  RH  017%=      5-min Rain = 0
KCA2 050916Z 31009KT 17/M09 A3004 RMK A01 T01681085  RH  017%=      5-min Rain = 0
KCA2 050917Z 32006KT 17/M09 A3004 RMK A01 T01681086  RH  017%=      5-min Rain = 0
KCA2 050918Z 30009KT 17/M09 A3004 RMK A01 T01681086  RH  017%=      5-min Rain = 0
KCA2 050919Z 30010KT 17/M09 A3004 RMK A01 T01671086  RH  017%=      5-min Rain = 0
KCA2 050920Z 30009KT 17/M09 A3004 RMK A01 T01661087  RH  017%=      5-min Rain = 0
KCA2 050921Z 29010KT 17/M09 A3004 RMK A01 T01661087  RH  017%=      5-min Rain = 0
KCA2 050922Z 29009KT 17/M09 A3004 RMK A01 T01681088  RH  017%=      5-min Rain = 0
KCA2 050923Z 30009KT 17/M09 A3004 RMK A01 T01681087  RH  017%=      5-min Rain = 0
KCA2 050924Z 31007KT 17/M09 A3004 RMK A01 T01681087  RH  017%=      5-min Rain = 0
KCA2 050925Z 31008KT 17/M09 A3004 RMK A01 T01671087  RH  017%=      5-min Rain = 0
KCA2 050926Z 31007KT 17/M09 A3004 RMK A01 T01671088  RH  017%=      5-min Rain = 0
KCA2 050927Z 30007KT 17/M09 A3004 RMK A01 T01661087  RH  017%=      5-min Rain = 0
KCA2 050928Z 30006KT 17/M09 A3004 RMK A01 T01651087  RH  017%=      5-min Rain = 0
KCA2 050929Z 30006KT 16/M09 A3004 RMK A01 T01641087  RH  017%=      5-min Rain = 0
KCA2 050930Z 30006KT 16/M09 A3004 RMK A01 T01631086  RH  017%=      5-min Rain = 0
KCA2 050931Z 29006KT 16/M09 A3004 RMK A01 T01611086  RH  018%=      5-min Rain = 0
KCA2 050932Z 29006KT 16/M09 A3004 RMK A01 T01601086  RH  018%=      5-min Rain = 0
KCA2 050933Z 29007KT 16/M09 A3005 RMK A01 T01591085  RH  018%=      5-min Rain = 0
KCA2 050934Z 29008KT 16/M09 A3005 RMK A01 T01591085  RH  018%=      5-min Rain = 0
KCA2 050935Z 29008KT 16/M09 A3005 RMK A01 T01591085  RH  018%=      5-min Rain = 0
KCA2 050936Z 29007KT 16/M09 A3005 RMK A01 T01581085  RH  018%=      5-min Rain = 0
KCA2 050937Z 29008KT 16/M08 A3005 RMK A01 T01581084  RH  018%=      5-min Rain = 0
KCA2 050938Z 30008KT 16/M08 A3005 RMK A01 T01581084  RH  018%=      5-min Rain = 0
KCA2 050939Z 30007KT 16/M08 A3005 RMK A01 T01571084  RH  018%=      5-min Rain = 0
KCA2 050940Z 29007KT 16/M08 A3005 RMK A01 T01571083  RH  018%=      5-min Rain = 0
KCA2 050941Z 30006KT 16/M08 A3005 RMK A01 T01571083  RH  018%=      5-min Rain = 0
KCA2 050942Z 31006KT 16/M08 A3005 RMK A01 T01571083  RH  018%=      5-min Rain = 0
KCA2 050943Z 32006KT 16/M08 A3005 RMK A01 T01571083  RH  018%=      5-min Rain = 0
KCA2 050944Z 31005KT 16/M08 A3005 RMK A01 T01571084  RH  018%=      5-min Rain = 0
KCA2 050945Z 31006KT 16/M09 A3005 RMK A01 T01571085  RH  018%=      5-min Rain = 0
KCA2 050946Z 32006KT 16/M09 A3005 RMK A01 T01581086  RH  018%=      5-min Rain = 0
KCA2 050947Z 31007KT 16/M09 A3005 RMK A01 T01581087  RH  018%=      5-min Rain = 0
KCA2 050948Z 30007KT 16/M09 A3005 RMK A01 T01581086  RH  018%=      5-min Rain = 0
KCA2 050949Z 30007KT 16/M09 A3005 RMK A01 T01561086  RH  018%=      5-min Rain = 0
KCA2 050950Z 30008KT 15/M09 A3005 RMK A01 T01541086  RH  018%=      5-min Rain = 0
KCA2 050951Z 30006KT 15/M09 A3005 RMK A01 T01541085  RH  018%=      5-min Rain = 0
KCA2 050952Z 30007KT 15/M09 A3005 RMK A01 T01531085  RH  019%=      5-min Rain = 0
KCA2 050953Z 30006KT 15/M09 A3005 RMK A01 T01531085  RH  018%=      5-min Rain = 0
KCA2 050954Z 31006KT 15/M09 A3005 RMK A01 T01541086  RH  018%=      5-min Rain = 0
KCA2 050955Z 31005KT 16/M09 A3005 RMK A01 T01551087  RH  018%=      5-min Rain = 0
KCA2 050956Z 32005KT 16/M09 A3005 RMK A01 T01561087  RH  018%=      5-min Rain = 0
KCA2 050957Z 31005KT 16/M09 A3005 RMK A01 T01561087  RH  018%=      5-min Rain = 0
KCA2 050958Z 32004KT 16/M09 A3005 RMK A01 T01551088  RH  018%=      5-min Rain = 0
KCA2 050959Z 33004KT 15/M09 A3005 RMK A01 T01541087  RH  018%=      5-min Rain = 0
KCA2 051000Z 33004KT 15/M09 A3005 RMK A01 T01531087  RH  018%=      5-min Rain = 0
KCA2 051001Z 34004KT 15/M09 A3005 RMK A01 T01521087  RH  018%=      5-min Rain = 0
KCA2 051002Z 33005KT 15/M09 A3006 RMK A01 T01511088  RH  018%=      5-min Rain = 0
KCA2 051003Z 33005KT 15/M09 A3006 RMK A01 T01511088  RH  018%=      5-min Rain = 0
KCA2 051004Z 32005KT 15/M09 A3006 RMK A01 T01511088  RH  018%=      5-min Rain = 0
KCA2 051005Z 32005KT 15/M09 A3006 RMK A01 T01511088  RH  018%=      5-min Rain = 0
KCA2 051006Z 31004KT 15/M09 A3006 RMK A01 T01501087  RH  019%=      5-min Rain = 0
KCA2 051007Z 31003KT 15/M09 A3006 RMK A01 T01491087  RH  019%=      5-min Rain = 0
KCA2 051008Z 31003KT 15/M09 A3006 RMK A01 T01471087  RH  019%=      5-min Rain = 0
KCA2 051009Z 31002KT 15/M09 A3006 RMK A01 T01451086  RH  019%=      5-min Rain = 0
KCA2 051010Z 31002KT 14/M09 A3006 RMK A01 T01441087  RH  019%=      5-min Rain = 0
KCA2 051011Z 30002KT 14/M09 A3006 RMK A01 T01431087  RH  020%=      5-min Rain = 0
KCA2 051012Z 29002KT 14/M09 A3006 RMK A01 T01421086  RH  020%=      5-min Rain = 0
KCA2 051013Z 27002KT 14/M09 A3006 RMK A01 T01421086  RH  020%=      5-min Rain = 0
KCA2 051014Z 25002KT 14/M09 A3005 RMK A01 T01411086  RH  020%=      5-min Rain = 0
KCA2 051015Z 24001KT 14/M09 A3005 RMK A01 T01411087  RH  020%=      5-min Rain = 0
KCA2 051016Z 24002KT 14/M09 A3005 RMK A01 T01411087  RH  020%=      5-min Rain = 0
KCA2 051017Z 25004KT 14/M09 A3005 RMK A01 T01411086  RH  020%=      5-min Rain = 0
KCA2 051018Z 26004KT 14/M09 A3005 RMK A01 T01421086  RH  020%=      5-min Rain = 0
KCA2 051019Z 26004KT 14/M09 A3005 RMK A01 T01441085  RH  020%=      5-min Rain = 0
KCA2 051020Z 28005KT 14/M08 A3005 RMK A01 T01431084  RH  020%=      5-min Rain = 0
KCA2 051021Z 29004KT 14/M08 A3005 RMK A01 T01421084  RH  020%=      5-min Rain = 0
KCA2 051022Z 32003KT 14/M08 A3006 RMK A01 T01411084  RH  020%=      5-min Rain = 0
KCA2 051023Z 32005KT 14/M09 A3006 RMK A01 T01411085  RH  020%=      5-min Rain = 0
KCA2 051024Z 30006KT 14/M09 A3006 RMK A01 T01431085  RH  020%=      5-min Rain = 0
KCA2 051025Z 30005KT 15/M09 A3005 RMK A01 T01451086  RH  019%=      5-min Rain = 0
KCA2 051026Z 30006KT 15/M09 A3005 RMK A01 T01461086  RH  019%=      5-min Rain = 0
KCA2 051027Z 30005KT 15/M09 A3005 RMK A01 T01461086  RH  019%=      5-min Rain = 0
KCA2 051028Z 31005KT 15/M09 A3005 RMK A01 T01461086  RH  019%=      5-min Rain = 0
KCA2 051029Z 31005KT 15/M09 A3005 RMK A01 T01451086  RH  019%=      5-min Rain = 0
KCA2 051030Z 32004KT 15/M09 A3006 RMK A01 T01451086  RH  019%=      5-min Rain = 0
KCA2 051031Z 31004KT 15/M09 A3006 RMK A01 T01451086  RH  019%=      5-min Rain = 0
KCA2 051032Z 32005KT 15/M09 A3006 RMK A01 T01461086  RH  019%=      5-min Rain = 0
KCA2 051033Z 31005KT 15/M09 A3006 RMK A01 T01451087  RH  019%=      5-min Rain = 0
KCA2 051034Z 31006KT 15/M09 A3006 RMK A01 T01461087  RH  019%=      5-min Rain = 0
KCA2 051035Z 30006KT 15/M09 A3006 RMK A01 T01481087  RH  019%=      5-min Rain = 0
KCA2 051036Z 30006KT 15/M09 A3006 RMK A01 T01481087  RH  019%=      5-min Rain = 0
KCA2 051037Z 31006KT 15/M09 A3006 RMK A01 T01481087  RH  019%=      5-min Rain = 0
KCA2 051038Z 30006KT 15/M09 A3006 RMK A01 T01471087  RH  019%=      5-min Rain = 0
KCA2 051039Z 30006KT 15/M09 A3006 RMK A01 T01451087  RH  019%=      5-min Rain = 0
KCA2 051040Z 30006KT 14/M09 A3006 RMK A01 T01441087  RH  019%=      5-min Rain = 0
KCA2 051041Z 30006KT 14/M09 A3006 RMK A01 T01441087  RH  019%=      5-min Rain = 0
KCA2 051042Z 30006KT 14/M09 A3006 RMK A01 T01441087  RH  019%=      5-min Rain = 0
KCA2 051043Z 29006KT 14/M09 A3006 RMK A01 T01441086  RH  020%=      5-min Rain = 0
KCA2 051044Z 29006KT 14/M09 A3006 RMK A01 T01431087  RH  020%=      5-min Rain = 0
KCA2 051045Z 28006KT 14/M09 A3006 RMK A01 T01431086  RH  020%=      5-min Rain = 0
KCA2 051046Z 29006KT 14/M09 A3006 RMK A01 T01401086  RH  020%=      5-min Rain = 0
KCA2 051047Z 29007KT 14/M09 A3005 RMK A01 T01371086  RH  020%=      5-min Rain = 0
KCA2 051048Z 29006KT 14/M09 A3005 RMK A01 T01371087  RH  020%=      5-min Rain = 0
KCA2 051049Z 30004KT 14/M09 A3005 RMK A01 T01411087  RH  020%=      5-min Rain = 0
KCA2 051050Z 33004KT 14/M09 A3005 RMK A01 T01431087  RH  020%=      5-min Rain = 0
KCA2 051051Z 35005KT 15/M09 A3005 RMK A01 T01451087  RH  019%=      5-min Rain = 0
KCA2 051052Z 34006KT 15/M09 A3006 RMK A01 T01461087  RH  019%=      5-min Rain = 0
KCA2 051053Z 32006KT 15/M09 A3006 RMK A01 T01481089  RH  019%=      5-min Rain = 0
KCA2 051054Z 31006KT 15/M09 A3006 RMK A01 T01521089  RH  018%=      5-min Rain = 0
KCA2 051055Z 31007KT 15/M09 A3006 RMK A01 T01531089  RH  018%=      5-min Rain = 0
KCA2 051056Z 32007KT 15/M09 A3006 RMK A01 T01521089  RH  018%=      5-min Rain = 0
KCA2 051057Z 31007KT 15/M09 A3006 RMK A01 T01491089  RH  018%=      5-min Rain = 0
KCA2 051058Z 31007KT 15/M09 A3006 RMK A01 T01481088  RH  019%=      5-min Rain = 0
KCA2 051059Z 31007KT 15/M09 A3006 RMK A01 T01481088  RH  019%=      5-min Rain = 0
KCA2 051100Z 32007KT 15/M09 A3006 RMK A01 T01481088  RH  019%=      5-min Rain = 0
KCA2 051101Z 31007KT 15/M09 A3006 RMK A01 T01481088  RH  019%=      5-min Rain = 0
KCA2 051102Z 30006KT 15/M09 A3006 RMK A01 T01481087  RH  019%=      5-min Rain = 0
KCA2 051103Z 30006KT 14/M09 A3006 RMK A01 T01441086  RH  020%=      5-min Rain = 0
KCA2 051104Z 30005KT 14/M09 A3006 RMK A01 T01401086  RH  020%=      5-min Rain = 0
KCA2 051105Z 31006KT 14/M09 A3006 RMK A01 T01411087  RH  020%=      5-min Rain = 0
KCA2 051106Z 31005KT 14/M09 A3006 RMK A01 T01431087  RH  020%=      5-min Rain = 0
KCA2 051107Z 31004KT 15/M09 A3006 RMK A01 T01451086  RH  019%=      5-min Rain = 0
KCA2 051108Z 32004KT 15/M09 A3006 RMK A01 T01451087  RH  019%=      5-min Rain = 0
KCA2 051109Z 34004KT 15/M09 A3006 RMK A01 T01451087  RH  019%=      5-min Rain = 0
KCA2 051110Z 34004KT 15/M09 A3006 RMK A01 T01451087  RH  019%=      5-min Rain = 0
KCA2 051111Z 33004KT 14/M09 A3006 RMK A01 T01441087  RH  019%=      5-min Rain = 0
KCA2 051112Z 32005KT 14/M09 A3006 RMK A01 T01441087  RH  019%=      5-min Rain = 0
KCA2 051113Z 32004KT 14/M09 A3006 RMK A01 T01441087  RH  019%=      5-min Rain = 0
KCA2 051114Z 34003KT 14/M09 A3005 RMK A01 T01441088  RH  019%=      5-min Rain = 0
KCA2 051115Z 33003KT 15/M09 A3006 RMK A01 T01451088  RH  019%=      5-min Rain = 0
KCA2 051116Z 34003KT 15/M09 A3006 RMK A01 T01461088  RH  019%=      5-min Rain = 0
KCA2 051117Z 35004KT 15/M09 A3006 RMK A01 T01461088  RH  019%=      5-min Rain = 0
KCA2 051118Z 35006KT 15/M09 A3006 RMK A01 T01451088  RH  019%=      5-min Rain = 0
KCA2 051119Z 34006KT 15/M09 A3006 RMK A01 T01461087  RH  019%=      5-min Rain = 0
KCA2 051120Z 34005KT 15/M09 A3006 RMK A01 T01481088  RH  019%=      5-min Rain = 0
KCA2 051121Z 33004KT 15/M09 A3006 RMK A01 T01501088  RH  018%=      5-min Rain = 0
KCA2 051122Z 31004KT 15/M09 A3006 RMK A01 T01491086  RH  019%=      5-min Rain = 0
KCA2 051123Z 32004KT 15/M09 A3006 RMK A01 T01461087  RH  019%=      5-min Rain = 0
KCA2 051124Z 34005KT 14/M09 A3006 RMK A01 T01431087  RH  020%=      5-min Rain = 0
KCA2 051125Z 34007KT 14/M09 A3006 RMK A01 T01421087  RH  020%=      5-min Rain = 0
KCA2 051126Z 33006KT 14/M09 A3006 RMK A01 T01441087  RH  019%=      5-min Rain = 0
KCA2 051127Z 31004KT 14/M09 A3006 RMK A01 T01431085  RH  020%=      5-min Rain = 0
KCA2 051128Z 31004KT 14/M09 A3006 RMK A01 T01401086  RH  020%=      5-min Rain = 0
KCA2 051129Z 32004KT 14/M09 A3006 RMK A01 T01391086  RH  020%=      5-min Rain = 0
KCA2 051130Z 33005KT 14/M09 A3006 RMK A01 T01411086  RH  020%=      5-min Rain = 0
KCA2 051131Z 34007KT 14/M09 A3006 RMK A01 T01441086  RH  019%=      5-min Rain = 0
KCA2 051132Z 35007KT 15/M09 A3006 RMK A01 T01501087  RH  019%=      5-min Rain = 0
KCA2 051133Z 34008KT 15/M09 A3006 RMK A01 T01541088  RH  018%=      5-min Rain = 0
KCA2 051134Z 33008KT 16/M09 A3006 RMK A01 T01571089  RH  018%=      5-min Rain = 0
KCA2 051135Z 31006KT 16/M09 A3006 RMK A01 T01571086  RH  018%=      5-min Rain = 0
KCA2 051136Z 30005KT 15/M09 A3006 RMK A01 T01511086  RH  019%=      5-min Rain = 0
KCA2 051137Z 32007KT 15/M09 A3006 RMK A01 T01471087  RH  019%=      5-min Rain = 0
KCA2 051138Z 33008KT 15/M09 A3007 RMK A01 T01471088  RH  019%=      5-min Rain = 0
KCA2 051139Z 33008KT 15/M09 A3007 RMK A01 T01501087  RH  019%=      5-min Rain = 0
KCA2 051140Z 33009KT 15/M09 A3007 RMK A01 T01531088  RH  018%=      5-min Rain = 0
KCA2 051141Z 32007KT 15/M09 A3007 RMK A01 T01541088  RH  018%=      5-min Rain = 0
KCA2 051142Z 32007KT 16/M09 A3007 RMK A01 T01551089  RH  018%=      5-min Rain = 0
KCA2 051143Z 32007KT 15/M09 A3007 RMK A01 T01541088  RH  018%=      5-min Rain = 0
KCA2 051144Z 32008KT 15/M09 A3007 RMK A01 T01531088  RH  018%=      5-min Rain = 0
KCA2 051145Z 32008KT 15/M09 A3007 RMK A01 T01531089  RH  018%=      5-min Rain = 0
KCA2 051146Z 32007KT 15/M09 A3007 RMK A01 T01531089  RH  018%=      5-min Rain = 0
KCA2 051147Z 32006KT 15/M09 A3007 RMK A01 T01531089  RH  018%=      5-min Rain = 0
KCA2 051148Z 30003KT 15/M09 A3007 RMK A01 T01511087  RH  019%=      5-min Rain = 0
KCA2 051149Z 28003KT 15/M09 A3007 RMK A01 T01481086  RH  019%=      5-min Rain = 0
KCA2 051150Z 27005KT 14/M08 A3007 RMK A01 T01441084  RH  020%=      5-min Rain = 0
KCA2 051151Z 28005KT 14/M08 A3007 RMK A01 T01421083  RH  020%=      5-min Rain = 0
KCA2 051152Z 26007KT 14/M08 A3007 RMK A01 T01401082  RH  021%=      5-min Rain = 0
KCA2 051153Z 27007KT 14/M08 A3007 RMK A01 T01371079  RH  022%=      5-min Rain = 0
KCA2 051154Z 27006KT 13/M08 A3007 RMK A01 T01341079  RH  022%=      5-min Rain = 0
KCA2 051155Z 28006KT 13/M08 A3007 RMK A01 T01331079  RH  022%=      5-min Rain = 0
KCA2 051156Z 29007KT 13/M08 A3008 RMK A01 T01321079  RH  022%=      5-min Rain = 0
KCA2 051157Z 30006KT 13/M08 A3008 RMK A01 T01321079  RH  022%=      5-min Rain = 0
KCA2 051158Z 31006KT 13/M08 A3008 RMK A01 T01321079  RH  022%=      5-min Rain = 0
KCA2 051159Z 34005KT 13/M08 A3008 RMK A01 T01331080  RH  022%=      5-min Rain = 0
KCA2 051200Z 35005KT 13/M08 A3008 RMK A01 T01331079  RH  022%=      5-min Rain = 0
KCA2 051201Z 34006KT 14/M08 A3008 RMK A01 T01351082  RH  021%=      5-min Rain = 0
KCA2 051202Z 34006KT 14/M08 A3008 RMK A01 T01391084  RH  020%=      5-min Rain = 0
KCA2 051203Z 34007KT 14/M08 A3008 RMK A01 T01441084  RH  020%=      5-min Rain = 0
KCA2 051204Z 34007KT 15/M09 A3008 RMK A01 T01461085  RH  019%=      5-min Rain = 0
KCA2 051205Z 33007KT 15/M09 A3008 RMK A01 T01471085  RH  019%=      5-min Rain = 0
KCA2 051206Z 33007KT 15/M08 A3008 RMK A01 T01471084  RH  019%=      5-min Rain = 0
KCA2 051207Z 33007KT 15/M08 A3008 RMK A01 T01451083  RH  020%=      5-min Rain = 0
KCA2 051208Z 33008KT 14/M08 A3007 RMK A01 T01431083  RH  020%=      5-min Rain = 0
KCA2 051209Z 33008KT 14/M08 A3007 RMK A01 T01431083  RH  020%=      5-min Rain = 0
KCA2 051210Z 33007KT 14/M08 A3007 RMK A01 T01431082  RH  020%=      5-min Rain = 0
KCA2 051211Z 33007KT 14/M08 A3007 RMK A01 T01411082  RH  020%=      5-min Rain = 0
KCA2 051212Z 34007KT 14/M08 A3007 RMK A01 T01411083  RH  020%=      5-min Rain = 0
KCA2 051213Z 35008KT 14/M08 A3008 RMK A01 T01431084  RH  020%=      5-min Rain = 0
KCA2 051214Z 35008KT 15/M09 A3008 RMK A01 T01461085  RH  019%=      5-min Rain = 0
KCA2 051215Z 35009KT 15/M09 A3008 RMK A01 T01481085  RH  019%=      5-min Rain = 0
KCA2 051216Z 35008KT 15/M09 A3008 RMK A01 T01481085  RH  019%=      5-min Rain = 0
KCA2 051217Z 34007KT 15/M08 A3008 RMK A01 T01501084  RH  019%=      5-min Rain = 0
KCA2 051218Z 34007KT 15/M09 A3008 RMK A01 T01511085  RH  019%=      5-min Rain = 0
KCA2 051219Z 34007KT 15/M08 A3008 RMK A01 T01511084  RH  019%=      5-min Rain = 0
KCA2 051220Z 33007KT 15/M08 A3009 RMK A01 T01511084  RH  019%=      5-min Rain = 0
KCA2 051221Z 33006KT 15/M08 A3009 RMK A01 T01511083  RH  019%=      5-min Rain = 0
KCA2 051222Z 34006KT 15/M08 A3009 RMK A01 T01511083  RH  019%=      5-min Rain = 0
KCA2 051223Z 32006KT 15/M08 A3009 RMK A01 T01521082  RH  019%=      5-min Rain = 0
KCA2 051224Z 33006KT 15/M08 A3009 RMK A01 T01521082  RH  019%=      5-min Rain = 0
KCA2 051225Z 34006KT 15/M08 A3009 RMK A01 T01511083  RH  019%=      5-min Rain = 0
KCA2 051226Z 35006KT 15/M08 A3009 RMK A01 T01521083  RH  019%=      5-min Rain = 0
KCA2 051227Z 35006KT 15/M08 A3009 RMK A01 T01541082  RH  019%=      5-min Rain = 0
KCA2 051228Z 34005KT 16/M08 A3009 RMK A01 T01571082  RH  019%=      5-min Rain = 0
KCA2 051229Z 34006KT 16/M08 A3009 RMK A01 T01571081  RH  019%=      5-min Rain = 0
KCA2 051230Z 34005KT 16/M08 A3009 RMK A01 T01581080  RH  019%=      5-min Rain = 0
KCA2 051231Z 35005KT 16/M08 A3008 RMK A01 T01581080  RH  019%=      5-min Rain = 0
KCA2 051232Z 35005KT 16/M08 A3008 RMK A01 T01581080  RH  019%=      5-min Rain = 0
KCA2 051233Z 35005KT 16/M08 A3008 RMK A01 T01591079  RH  019%=      5-min Rain = 0
KCA2 051234Z 34005KT 16/M08 A3008 RMK A01 T01591079  RH  019%=      5-min Rain = 0
KCA2 051235Z 35005KT 16/M08 A3009 RMK A01 T01601080  RH  019%=      5-min Rain = 0
KCA2 051236Z 36005KT 16/M08 A3009 RMK A01 T01601079  RH  019%=      5-min Rain = 0
KCA2 051237Z 00006KT 16/M08 A3009 RMK A01 T01601079  RH  019%=      5-min Rain = 0
KCA2 051238Z 01007KT 16/M08 A3009 RMK A01 T01601079  RH  019%=      5-min Rain = 0
KCA2 051239Z 01007KT 16/M08 A3009 RMK A01 T01601079  RH  019%=      5-min Rain = 0
KCA2 051240Z 00007KT 16/M08 A3009 RMK A01 T01611079  RH  019%=      5-min Rain = 0
KCA2 051241Z 35005KT 16/M08 A3009 RMK A01 T01611078  RH  019%=      5-min Rain = 0
KCA2 051242Z 35005KT 16/M08 A3009 RMK A01 T01611078  RH  019%=      5-min Rain = 0
KCA2 051243Z 35005KT 16/M08 A3009 RMK A01 T01611078  RH  019%=      5-min Rain = 0
KCA2 051244Z 35006KT 16/M08 A3009 RMK A01 T01611078  RH  019%=      5-min Rain = 0
KCA2 051245Z 34005KT 16/M08 A3009 RMK A01 T01601078  RH  019%=      5-min Rain = 0
KCA2 051246Z 34006KT 16/M08 A3009 RMK A01 T01611077  RH  019%=      5-min Rain = 0
KCA2 051247Z 34005KT 16/M08 A3009 RMK A01 T01601076  RH  019%=      5-min Rain = 0
KCA2 051248Z 34006KT 16/M08 A3009 RMK A01 T01601076  RH  019%=      5-min Rain = 0
KCA2 051249Z 34005KT 16/M08 A3009 RMK A01 T01591076  RH  019%=      5-min Rain = 0
KCA2 051250Z 34004KT 16/M07 A3009 RMK A01 T01591074  RH  019%=      5-min Rain = 0
KCA2 051251Z 33003KT 16/M08 A3009 RMK A01 T01561075  RH  020%=      5-min Rain = 0
KCA2 051252Z 33003KT 15/M08 A3009 RMK A01 T01541075  RH  020%=      5-min Rain = 0
KCA2 051253Z 34004KT 15/M07 A3009 RMK A01 T01531074  RH  020%=      5-min Rain = 0
KCA2 051254Z 33004KT 15/M07 A3009 RMK A01 T01541074  RH  020%=      5-min Rain = 0
KCA2 051255Z 33003KT 15/M07 A3009 RMK A01 T01531074  RH  020%=      5-min Rain = 0
KCA2 051256Z 29002KT 15/M07 A3009 RMK A01 T01531074  RH  020%=      5-min Rain = 0
KCA2 051257Z 28002KT 15/M07 A3009 RMK A01 T01521074  RH  020%=      5-min Rain = 0
KCA2 051258Z 30003KT 15/M07 A3009 RMK A01 T01511073  RH  021%=      5-min Rain = 0
KCA2 051259Z 29004KT 15/M07 A3009 RMK A01 T01501073  RH  021%=      5-min Rain = 0
KCA2 051300Z 28004KT 15/M07 A3009 RMK A01 T01491072  RH  021%=      5-min Rain = 0
KCA2 051301Z 28004KT 15/M07 A3009 RMK A01 T01471072  RH  021%=      5-min Rain = 0
KCA2 051302Z 30004KT 15/M08 A3009 RMK A01 T01461075  RH  021%=      5-min Rain = 0
KCA2 051303Z 31004KT 15/M08 A3009 RMK A01 T01471075  RH  021%=      5-min Rain = 0
KCA2 051304Z 33004KT 15/M07 A3009 RMK A01 T01481074  RH  021%=      5-min Rain = 0
KCA2 051305Z 34006KT 15/M07 A301 RMK A01 T01501073  RH  021%=      5-min Rain = 0
KCA2 051306Z 34007KT 15/M07 A301 RMK A01 T01511073  RH  021%=      5-min Rain = 0
KCA2 051307Z 34007KT 16/M07 A301 RMK A01 T01551073  RH  020%=      5-min Rain = 0
KCA2 051308Z 33007KT 16/M07 A301 RMK A01 T01571074  RH  020%=      5-min Rain = 0
KCA2 051309Z 33007KT 16/M07 A301 RMK A01 T01591074  RH  019%=      5-min Rain = 0
KCA2 051310Z 34008KT 16/M07 A301 RMK A01 T01591074  RH  019%=      5-min Rain = 0
KCA2 051311Z 34009KT 16/M08 A301 RMK A01 T01611076  RH  019%=      5-min Rain = 0
KCA2 051312Z 33008KT 16/M08 A301 RMK A01 T01631076  RH  019%=      5-min Rain = 0
KCA2 051313Z 34007KT 16/M08 A301 RMK A01 T01631076  RH  019%=      5-min Rain = 0
KCA2 051314Z 34008KT 16/M08 A301 RMK A01 T01631076  RH  019%=      5-min Rain = 0
KCA2 051315Z 34008KT 16/M08 A301 RMK A01 T01631076  RH  019%=      5-min Rain = 0
KCA2 051316Z 34009KT 16/M08 A301 RMK A01 T01621076  RH  019%=      5-min Rain = 0
KCA2 051317Z 34009KT 16/M08 A301 RMK A01 T01621076  RH  019%=      5-min Rain = 0
KCA2 051318Z 34010KT 16/M08 A301 RMK A01 T01621076  RH  019%=      5-min Rain = 0
KCA2 051319Z 33011KT 16/M08 A301 RMK A01 T01621076  RH  019%=      5-min Rain = 0
KCA2 051320Z 33010KT 16/M08 A301 RMK A01 T01631076  RH  019%=      5-min Rain = 0
KCA2 051321Z 33011KT 16/M08 A301 RMK A01 T01631076  RH  019%=      5-min Rain = 0
KCA2 051322Z 32009KT 16/M08 A301 RMK A01 T01631076  RH  019%=      5-min Rain = 0
KCA2 051323Z 33010KT 16/M08 A301 RMK A01 T01631076  RH  019%=      5-min Rain = 0
KCA2 051324Z 33010KT 16/M08 A301 RMK A01 T01621075  RH  019%=      5-min Rain = 0
KCA2 051325Z 32010KT 16/M08 A301 RMK A01 T01611076  RH  019%=      5-min Rain = 0
KCA2 051326Z 32011KT 16/M08 A301 RMK A01 T01611076  RH  019%=      5-min Rain = 0
KCA2 051327Z 32011KT 16/M08 A301 RMK A01 T01601076  RH  019%=      5-min Rain = 0
KCA2 051328Z 32011KT 16/M08 A301 RMK A01 T01591076  RH  019%=      5-min Rain = 0
KCA2 051329Z 32010KT 16/M08 A301 RMK A01 T01591075  RH  019%=      5-min Rain = 0
KCA2 051330Z 32009KT 16/M08 A301 RMK A01 T01581075  RH  019%=      5-min Rain = 0
KCA2 051331Z 33009KT 16/M08 A301 RMK A01 T01581075  RH  019%=      5-min Rain = 0
KCA2 051332Z 33009KT 16/M07 A301 RMK A01 T01581074  RH  020%=      5-min Rain = 0
KCA2 051333Z 32009KT 16/M07 A301 RMK A01 T01571074  RH  020%=      5-min Rain = 0
KCA2 051334Z 33008KT 16/M07 A301 RMK A01 T01571074  RH  020%=      5-min Rain = 0
KCA2 051335Z 33008KT 16/M07 A301 RMK A01 T01571073  RH  020%=      5-min Rain = 0
KCA2 051336Z 32007KT 16/M07 A301 RMK A01 T01571073  RH  020%=      5-min Rain = 0
KCA2 051337Z 32007KT 16/M07 A301 RMK A01 T01571073  RH  020%=      5-min Rain = 0
KCA2 051338Z 33007KT 16/M07 A301 RMK A01 T01561073  RH  020%=      5-min Rain = 0
KCA2 051339Z 32007KT 16/M07 A301 RMK A01 T01561073  RH  020%=      5-min Rain = 0
KCA2 051340Z 32008KT 16/M07 A301 RMK A01 T01561072  RH  020%=      5-min Rain = 0
KCA2 051341Z 32007KT 16/M07 A301 RMK A01 T01561072  RH  020%=      5-min Rain = 0
KCA2 051342Z 32007KT 16/M07 A301 RMK A01 T01561071  RH  020%=      5-min Rain = 0
KCA2 051343Z 32008KT 16/M07 A301 RMK A01 T01561071  RH  020%=      5-min Rain = 0
KCA2 051344Z 32009KT 16/M07 A301 RMK A01 T01551071  RH  020%=      5-min Rain = 0
KCA2 051345Z 33008KT 16/M07 A301 RMK A01 T01551071  RH  020%=      5-min Rain = 0
KCA2 051346Z 33008KT 16/M07 A301 RMK A01 T01551071  RH  020%=      5-min Rain = 0
KCA2 051347Z 33009KT 16/M07 A3011 RMK A01 T01551070  RH  021%=      5-min Rain = 0
KCA2 051348Z 32008KT 16/M07 A3011 RMK A01 T01551069  RH  021%=      5-min Rain = 0
KCA2 051349Z 33008KT 16/M07 A3011 RMK A01 T01551070  RH  021%=      5-min Rain = 0
KCA2 051350Z 32008KT 16/M07 A3011 RMK A01 T01551069  RH  021%=      5-min Rain = 0
KCA2 051351Z 33009KT 16/M07 A3011 RMK A01 T01551069  RH  021%=      5-min Rain = 0
KCA2 051352Z 32008KT 16/M07 A3011 RMK A01 T01551069  RH  021%=      5-min Rain = 0
KCA2 051353Z 32008KT 16/M07 A3011 RMK A01 T01561069  RH  021%=      5-min Rain = 0
KCA2 051354Z 33008KT 16/M07 A3011 RMK A01 T01561068  RH  021%=      5-min Rain = 0
KCA2 051355Z 33007KT 16/M07 A3011 RMK A01 T01571068  RH  021%=      5-min Rain = 0
KCA2 051356Z 32009KT 16/M07 A3011 RMK A01 T01571067  RH  021%=      5-min Rain = 0
KCA2 051357Z 32008KT 16/M07 A3011 RMK A01 T01581067  RH  021%=      5-min Rain = 0
KCA2 051358Z 32008KT 16/M07 A3011 RMK A01 T01591066  RH  021%=      5-min Rain = 0
KCA2 051359Z 32009KT 16/M07 A3011 RMK A01 T01601066  RH  021%=      5-min Rain = 0
KCA2 051400Z 33008KT 16/M07 A3011 RMK A01 T01601065  RH  021%=      5-min Rain = 0
KCA2 051401Z 33008KT 16/M07 A3011 RMK A01 T01611065  RH  021%=      5-min Rain = 0
KCA2 051402Z 33008KT 16/M07 A3011 RMK A01 T01621065  RH  021%=      5-min Rain = 0
KCA2 051403Z 33008KT 16/M07 A3011 RMK A01 T01621065  RH  020%=      5-min Rain = 0
KCA2 051404Z 33009KT 16/M06 A3011 RMK A01 T01631064  RH  020%=      5-min Rain = 0
KCA2 051405Z 33009KT 16/M07 A3011 RMK A01 T01631065  RH  020%=      5-min Rain = 0
KCA2 051406Z 33008KT 16/M07 A3011 RMK A01 T01641065  RH  020%=      5-min Rain = 0
KCA2 051407Z 33007KT 17/M06 A3011 RMK A01 T01651064  RH  020%=      5-min Rain = 0
KCA2 051408Z 33006KT 17/M06 A3011 RMK A01 T01651063  RH  020%=      5-min Rain = 0
KCA2 051409Z 33007KT 17/M06 A3011 RMK A01 T01651063  RH  020%=      5-min Rain = 0
KCA2 051410Z 34008KT 17/M06 A3012 RMK A01 T01651063  RH  020%=      5-min Rain = 0
KCA2 051411Z 34007KT 17/M06 A3012 RMK A01 T01661064  RH  020%=      5-min Rain = 0
KCA2 051412Z 34008KT 17/M06 A3012 RMK A01 T01661063  RH  020%=      5-min Rain = 0
KCA2 051413Z 34006KT 17/M06 A3012 RMK A01 T01661064  RH  020%=      5-min Rain = 0
KCA2 051414Z 34006KT 17/M06 A3012 RMK A01 T01651064  RH  020%=      5-min Rain = 0
KCA2 051415Z 34006KT 16/M06 A3012 RMK A01 T01641063  RH  021%=      5-min Rain = 0
KCA2 051416Z 33007KT 16/M06 A3012 RMK A01 T01641063  RH  021%=      5-min Rain = 0
KCA2 051417Z 34007KT 16/M06 A3012 RMK A01 T01631063  RH  021%=      5-min Rain = 0
KCA2 051418Z 34006KT 16/M06 A3012 RMK A01 T01631063  RH  021%=      5-min Rain = 0
KCA2 051419Z 33007KT 16/M06 A3012 RMK A01 T01621063  RH  021%=      5-min Rain = 0
KCA2 051420Z 33008KT 16/M06 A3012 RMK A01 T01621064  RH  021%=      5-min Rain = 0
KCA2 051421Z 33008KT 16/M06 A3013 RMK A01 T01611064  RH  021%=      5-min Rain = 0
KCA2 051422Z 33008KT 16/M06 A3013 RMK A01 T01611063  RH  021%=      5-min Rain = 0
KCA2 051423Z 33008KT 16/M06 A3013 RMK A01 T01611063  RH  021%=      5-min Rain = 0
KCA2 051424Z 33008KT 16/M06 A3013 RMK A01 T01621063  RH  021%=      5-min Rain = 0
KCA2 051425Z 33009KT 16/M06 A3013 RMK A01 T01621062  RH  021%=      5-min Rain = 0
KCA2 051426Z 34008KT 16/M06 A3013 RMK A01 T01631062  RH  021%=      5-min Rain = 0
KCA2 051427Z 34009KT 16/M06 A3013 RMK A01 T01641062  RH  021%=      5-min Rain = 0
KCA2 051428Z 34008KT 17/M06 A3013 RMK A01 T01651062  RH  021%=      5-min Rain = 0
KCA2 051429Z 35009KT 17/M06 A3013 RMK A01 T01661062  RH  020%=      5-min Rain = 0
KCA2 051430Z 34009KT 17/M06 A3013 RMK A01 T01671063  RH  020%=      5-min Rain = 0
KCA2 051431Z 34008KT 17/M06 A3013 RMK A01 T01671062  RH  020%=      5-min Rain = 0
KCA2 051432Z 35009KT 17/M06 A3013 RMK A01 T01681062  RH  020%=      5-min Rain = 0
KCA2 051433Z 35009KT 17/M06 A3013 RMK A01 T01681062  RH  020%=      5-min Rain = 0
KCA2 051434Z 34008KT 17/M06 A3013 RMK A01 T01681062  RH  020%=      5-min Rain = 0
KCA2 051435Z 34008KT 17/M06 A3013 RMK A01 T01691062  RH  020%=      5-min Rain = 0
KCA2 051436Z 35009KT 17/M06 A3013 RMK A01 T01691062  RH  020%=      5-min Rain = 0
KCA2 051437Z 35009KT 17/M06 A3013 RMK A01 T01701061  RH  020%=      5-min Rain = 0
KCA2 051438Z 34009KT 17/M06 A3013 RMK A01 T01701062  RH  020%=      5-min Rain = 0
KCA2 051439Z 34008KT 17/M06 A3013 RMK A01 T01701062  RH  020%=      5-min Rain = 0
KCA2 051440Z 35007KT 17/M06 A3013 RMK A01 T01711062  RH  020%=      5-min Rain = 0
KCA2 051441Z 35008KT 17/M06 A3013 RMK A01 T01711061  RH  020%=      5-min Rain = 0
KCA2 051442Z 35008KT 17/M06 A3013 RMK A01 T01711062  RH  020%=      5-min Rain = 0
KCA2 051443Z 34007KT 17/M06 A3014 RMK A01 T01711061  RH  020%=      5-min Rain = 0
KCA2 051444Z 34007KT 17/M06 A3014 RMK A01 T01711060  RH  020%=      5-min Rain = 0
KCA2 051445Z 34007KT 17/M06 A3014 RMK A01 T01701060  RH  020%=      5-min Rain = 0
KCA2 051446Z 34006KT 17/M06 A3014 RMK A01 T01701060  RH  020%=      5-min Rain = 0
KCA2 051447Z 33006KT 17/M06 A3014 RMK A01 T01701059  RH  020%=      5-min Rain = 0
KCA2 051448Z 33007KT 17/M06 A3014 RMK A01 T01711060  RH  020%=      5-min Rain = 0
KCA2 051449Z 33006KT 17/M06 A3014 RMK A01 T01711060  RH  020%=      5-min Rain = 0
KCA2 051450Z 33008KT 17/M06 A3014 RMK A01 T01721059  RH  020%=      5-min Rain = 0
KCA2 051451Z 33007KT 17/M06 A3014 RMK A01 T01721060  RH  020%=      5-min Rain = 0
KCA2 051452Z 33007KT 17/M06 A3014 RMK A01 T01721059  RH  020%=      5-min Rain = 0
KCA2 051453Z 34007KT 17/M06 A3014 RMK A01 T01731060  RH  020%=      5-min Rain = 0
KCA2 051454Z 34008KT 17/M06 A3014 RMK A01 T01741059  RH  020%=      5-min Rain = 0
KCA2 051455Z 33006KT 17/M06 A3014 RMK A01 T01741059  RH  020%=      5-min Rain = 0
KCA2 051456Z 33006KT 18/M06 A3015 RMK A01 T01751057  RH  020%=      5-min Rain = 0
KCA2 051457Z 34007KT 18/M06 A3015 RMK A01 T01761057  RH  020%=      5-min Rain = 0
KCA2 051458Z 33007KT 18/M06 A3015 RMK A01 T01771058  RH  020%=      5-min Rain = 0
KCA2 051459Z 33008KT 18/M06 A3015 RMK A01 T01771057  RH  020%=      5-min Rain = 0
KCA2 051500Z 33007KT 18/M06 A3015 RMK A01 T01771058  RH  020%=      5-min Rain = 0
KCA2 051501Z 34008KT 18/M06 A3015 RMK A01 T01771057  RH  020%=      5-min Rain = 0
KCA2 051502Z 33007KT 18/M06 A3015 RMK A01 T01781057  RH  020%=      5-min Rain = 0
KCA2 051503Z 34006KT 18/M06 A3015 RMK A01 T01791057  RH  020%=      5-min Rain = 0
KCA2 051504Z 34007KT 18/M06 A3015 RMK A01 T01801056  RH  019%=      5-min Rain = 0
KCA2 051505Z 35008KT 18/M06 A3015 RMK A01 T01811057  RH  019%=      5-min Rain = 0
KCA2 051506Z 35008KT 18/M06 A3015 RMK A01 T01811058  RH  019%=      5-min Rain = 0
KCA2 051507Z 35009KT 18/M06 A3015 RMK A01 T01821058  RH  019%=      5-min Rain = 0
KCA2 051508Z 35009KT 18/M06 A3015 RMK A01 T01821058  RH  019%=      5-min Rain = 0
KCA2 051509Z 35009KT 18/M06 A3015 RMK A01 T01821058  RH  019%=      5-min Rain = 0
KCA2 051510Z 35008KT 18/M06 A3015 RMK A01 T01821058  RH  019%=      5-min Rain = 0
KCA2 051511Z 36008KT 18/M06 A3015 RMK A01 T01831057  RH  019%=      5-min Rain = 0
KCA2 051512Z 35008KT 18/M06 A3015 RMK A01 T01841058  RH  019%=      5-min Rain = 0
KCA2 051513Z 35007KT 18/M06 A3015 RMK A01 T01841058  RH  019%=      5-min Rain = 0
KCA2 051514Z 34008KT 18/M06 A3015 RMK A01 T01841057  RH  019%=      5-min Rain = 0
KCA2 051515Z 34009KT 18/M06 A3015 RMK A01 T01841057  RH  019%=      5-min Rain = 0
KCA2 051516Z 34008KT 18/M06 A3015 RMK A01 T01841057  RH  019%=      5-min Rain = 0
KCA2 051517Z 33007KT 18/M06 A3015 RMK A01 T01841057  RH  019%=      5-min Rain = 0
KCA2 051518Z 34006KT 19/M06 A3015 RMK A01 T01851058  RH  019%=      5-min Rain = 0
KCA2 051519Z 35007KT 19/M06 A3015 RMK A01 T01851057  RH  019%=      5-min Rain = 0
KCA2 051520Z 35008KT 19/M06 A3015 RMK A01 T01861056  RH  019%=      5-min Rain = 0
KCA2 051521Z 35007KT 19/M06 A3015 RMK A01 T01861057  RH  019%=      5-min Rain = 0
KCA2 051522Z 34007KT 19/M06 A3015 RMK A01 T01861056  RH  019%=      5-min Rain = 0
KCA2 051523Z 34007KT 19/M06 A3015 RMK A01 T01871056  RH  019%=      5-min Rain = 0
KCA2 051524Z 34006KT 19/M06 A3015 RMK A01 T01871056  RH  019%=      5-min Rain = 0
KCA2 051525Z 33006KT 19/M06 A3015 RMK A01 T01871056  RH  019%=      5-min Rain = 0
KCA2 051526Z 33006KT 19/M06 A3015 RMK A01 T01881055  RH  019%=      5-min Rain = 0
KCA2 051527Z 34006KT 19/M05 A3015 RMK A01 T01891053  RH  019%=      5-min Rain = 0
KCA2 051528Z 34007KT 19/M06 A3015 RMK A01 T01901055  RH  018%=      5-min Rain = 0
KCA2 051529Z 34008KT 19/M06 A3015 RMK A01 T01891055  RH  019%=      5-min Rain = 0
KCA2 051530Z 34008KT 19/M06 A3015 RMK A01 T01891055  RH  019%=      5-min Rain = 0
KCA2 051531Z 33007KT 19/M06 A3015 RMK A01 T01891055  RH  019%=      5-min Rain = 0
KCA2 051532Z 32007KT 19/M05 A3015 RMK A01 T01891054  RH  019%=      5-min Rain = 0
KCA2 051533Z 33006KT 19/M05 A3015 RMK A01 T01891054  RH  019%=      5-min Rain = 0
KCA2 051534Z 32009KT 19/M05 A3015 RMK A01 T01901054  RH  019%=      5-min Rain = 0
KCA2 051535Z 32008KT 19/M06 A3015 RMK A01 T01901056  RH  018%=      5-min Rain = 0
KCA2 051536Z 32008KT 19/M05 A3015 RMK A01 T01891054  RH  019%=      5-min Rain = 0
KCA2 051537Z 32008KT 19/M05 A3016 RMK A01 T01901054  RH  019%=      5-min Rain = 0
KCA2 051538Z 32006KT 19/M05 A3016 RMK A01 T01901053  RH  019%=      5-min Rain = 0
KCA2 051539Z 32005KT 19/M05 A3016 RMK A01 T01921051  RH  019%=      5-min Rain = 0
KCA2 051540Z 33005KT 19/M05 A3016 RMK A01 T01941050  RH  019%=      5-min Rain = 0
KCA2 051541Z 32008KT 19/M05 A3016 RMK A01 T01941053  RH  018%=      5-min Rain = 0
KCA2 051542Z 31009KT 19/M05 A3016 RMK A01 T01931053  RH  018%=      5-min Rain = 0
KCA2 051543Z 33008KT 19/M05 A3016 RMK A01 T01931053  RH  018%=      5-min Rain = 0
KCA2 051544Z 31009KT 19/M05 A3016 RMK A01 T01931053  RH  018%=      5-min Rain = 0
KCA2 051545Z 31009KT 19/M05 A3016 RMK A01 T01941052  RH  018%=      5-min Rain = 0
KCA2 051546Z 30007KT 19/M05 A3016 RMK A01 T01941052  RH  018%=      5-min Rain = 0
KCA2 051547Z 31007KT 19/M05 A3016 RMK A01 T01941053  RH  018%=      5-min Rain = 0
KCA2 051548Z 31005KT 19/M05 A3016 RMK A01 T01931052  RH  019%=      5-min Rain = 0
KCA2 051549Z 33004KT 19/M05 A3016 RMK A01 T01931050  RH  019%=      5-min Rain = 0
KCA2 051550Z 34007KT 19/M05 A3016 RMK A01 T01941051  RH  019%=      5-min Rain = 0
KCA2 051551Z 34009KT 20/M05 A3016 RMK A01 T01951052  RH  018%=      5-min Rain = 0
KCA2 051552Z 34007KT 20/M05 A3016 RMK A01 T01951053  RH  018%=      5-min Rain = 0
KCA2 051553Z 35006KT 19/M05 A3016 RMK A01 T01941052  RH  018%=      5-min Rain = 0
KCA2 051554Z 34005KT 20/M05 A3016 RMK A01 T01951051  RH  019%=      5-min Rain = 0
KCA2 051555Z 33003KT 20/M05 A3016 RMK A01 T01981047  RH  019%=      5-min Rain = 0
KCA2 051556Z 35006KT 20/M05 A3016 RMK A01 T02011046  RH  019%=      5-min Rain = 0
KCA2 051557Z 35007KT 20/M05 A3016 RMK A01 T02021049  RH  018%=      5-min Rain = 0
KCA2 051558Z 34007KT 20/M05 A3016 RMK A01 T02011053  RH  017%=      5-min Rain = 0
KCA2 051559Z 35007KT 20/M05 A3016 RMK A01 T01991053  RH  018%=      5-min Rain = 0
KCA2 051600Z 34010KT 20/M05 A3016 RMK A01 T02001051  RH  018%=      5-min Rain = 0
KCA2 051601Z 34007KT 20/M05 A3016 RMK A01 T02001052  RH  018%=      5-min Rain = 0
KCA2 051602Z 34008KT 20/M05 A3016 RMK A01 T02001050  RH  018%=      5-min Rain = 0
KCA2 051603Z 32008KT 20/M05 A3016 RMK A01 T02021051  RH  018%=      5-min Rain = 0
KCA2 051604Z 33008KT 20/M05 A3016 RMK A01 T01991053  RH  018%=      5-min Rain = 0
KCA2 051605Z 32007KT 20/M05 A3016 RMK A01 T01981053  RH  018%=      5-min Rain = 0
KCA2 051606Z 33008KT 20/M05 A3016 RMK A01 T01981051  RH  018%=      5-min Rain = 0
KCA2 051607Z 35008KT 20/M05 A3016 RMK A01 T01981052  RH  018%=      5-min Rain = 0
KCA2 051608Z 33008KT 20/M05 A3016 RMK A01 T02011048  RH  018%=      5-min Rain = 0
KCA2 051609Z 33006KT 20/M05 A3016 RMK A01 T02031048  RH  018%=      5-min Rain = 0
KCA2 051610Z 32007KT 20/M05 A3016 RMK A01 T02041048  RH  018%=      5-min Rain = 0
KCA2 051611Z 31008KT 21/M05 A3016 RMK A01 T02061047  RH  018%=      5-min Rain = 0
KCA2 051612Z 33006KT 21/M05 A3016 RMK A01 T02061049  RH  017%=      5-min Rain = 0
KCA2 051613Z 34007KT 21/M05 A3016 RMK A01 T02061049  RH  018%=      5-min Rain = 0
KCA2 051614Z 33007KT 21/M05 A3016 RMK A01 T02061050  RH  017%=      5-min Rain = 0
KCA2 051615Z 33009KT 21/M05 A3016 RMK A01 T02061050  RH  017%=      5-min Rain = 0
KCA2 051616Z 32007KT 21/M05 A3016 RMK A01 T02051052  RH  017%=      5-min Rain = 0
KCA2 051617Z 33009KT 20/M05 A3016 RMK A01 T02041050  RH  018%=      5-min Rain = 0
KCA2 051618Z 32009KT 21/M05 A3016 RMK A01 T02051051  RH  017%=      5-min Rain = 0
KCA2 051619Z 32008KT 20/M05 A3016 RMK A01 T02041051  RH  017%=      5-min Rain = 0
KCA2 051620Z 31007KT 21/M05 A3016 RMK A01 T02051048  RH  018%=      5-min Rain = 0
KCA2 051621Z 31009KT 21/M05 A3016 RMK A01 T02081047  RH  018%=      5-min Rain = 0
KCA2 051622Z 33009KT 21/M05 A3016 RMK A01 T02081049  RH  017%=      5-min Rain = 0
KCA2 051623Z 32008KT 21/M05 A3016 RMK A01 T02081050  RH  017%=      5-min Rain = 0
KCA2 051624Z 33006KT 21/M05 A3016 RMK A01 T02061051  RH  017%=      5-min Rain = 0
KCA2 051625Z 31007KT 21/M05 A3016 RMK A01 T02061049  RH  018%=      5-min Rain = 0
KCA2 051626Z 31006KT 21/M05 A3016 RMK A01 T02071049  RH  017%=      5-min Rain = 0
KCA2 051627Z 31007KT 21/M05 A3016 RMK A01 T02081050  RH  017%=      5-min Rain = 0
KCA2 051628Z 31007KT 21/M05 A3016 RMK A01 T02081050  RH  017%=      5-min Rain = 0
KCA2 051629Z 31009KT 21/M05 A3016 RMK A01 T02081050  RH  017%=      5-min Rain = 0
KCA2 051630Z 31006KT 21/M05 A3016 RMK A01 T02071050  RH  017%=      5-min Rain = 0
KCA2 051631Z 31010KT 21/M05 A3016 RMK A01 T02081048  RH  017%=      5-min Rain = 0
KCA2 051632Z 32009KT 21/M05 A3016 RMK A01 T02101050  RH  017%=      5-min Rain = 0
KCA2 051633Z 32009KT 21/M05 A3016 RMK A01 T02101051  RH  017%=      5-min Rain = 0
KCA2 051634Z 31008KT 21/M05 A3016 RMK A01 T02101052  RH  017%=      5-min Rain = 0
KCA2 051635Z 32008KT 21/M05 A3016 RMK A01 T02101050  RH  017%=      5-min Rain = 0
KCA2 051636Z 35011KT 21/M05 A3015 RMK A01 T02101052  RH  017%=      5-min Rain = 0
KCA2 051637Z 34010G15KT 21/M05 A3015 RMK A01 T02111051  RH  017%=      5-min Rain = 0
KCA2 051638Z 35007KT 21/M05 A3015 RMK A01 T02121052  RH  017%=      5-min Rain = 0
KCA2 051639Z 35007KT 21/M05 A3015 RMK A01 T02121052  RH  016%=      5-min Rain = 0
KCA2 051640Z 33004KT 21/M05 A3015 RMK A01 T02111051  RH  017%=      5-min Rain = 0
KCA2 051641Z 32008G13KT 21/M05 A3015 RMK A01 T02131049  RH  017%=      5-min Rain = 0
KCA2 051642Z 32011KT 21/M05 A3015 RMK A01 T02141052  RH  016%=      5-min Rain = 0
KCA2 051643Z 32011KT 21/M05 A3015 RMK A01 T02141053  RH  016%=      5-min Rain = 0
KCA2 051644Z 33011KT 21/M05 A3015 RMK A01 T02141052  RH  016%=      5-min Rain = 0
KCA2 051645Z 35009KT 22/M05 A3016 RMK A01 T02151051  RH  016%=      5-min Rain = 0
KCA2 051646Z 35008KT 22/M05 A3016 RMK A01 T02171049  RH  016%=      5-min Rain = 0
KCA2 051647Z 34008KT 22/M05 A3016 RMK A01 T02181048  RH  016%=      5-min Rain = 0
KCA2 051648Z 32010KT 22/M05 A3016 RMK A01 T02201050  RH  016%=      5-min Rain = 0
KCA2 051649Z 33008KT 22/M05 A3016 RMK A01 T02181054  RH  016%=      5-min Rain = 0
KCA2 051650Z 33004KT 22/M05 A3016 RMK A01 T02161052  RH  016%=      5-min Rain = 0
KCA2 051651Z 30006KT 22/M05 A3016 RMK A01 T02191050  RH  016%=      5-min Rain = 0
KCA2 051652Z 31010KT 22/M05 A3016 RMK A01 T02181052  RH  016%=      5-min Rain = 0
KCA2 051653Z 33010KT 22/M05 A3016 RMK A01 T02171052  RH  016%=      5-min Rain = 0
KCA2 051654Z 01008KT 22/M05 A3016 RMK A01 T02161053  RH  016%=      5-min Rain = 0
KCA2 051655Z 36009G15KT 22/M05 A3016 RMK A01 T02151053  RH  016%=      5-min Rain = 0
KCA2 051656Z 32009KT 22/M05 A3016 RMK A01 T02161053  RH  016%=      5-min Rain = 0
KCA2 051657Z 35010KT 22/M05 A3016 RMK A01 T02171052  RH  016%=      5-min Rain = 0
KCA2 051658Z 01013KT 22/M05 A3016 RMK A01 T02181054  RH  016%=      5-min Rain = 0
KCA2 051659Z 01009KT 22/M06 A3016 RMK A01 T02171055  RH  016%=      5-min Rain = 0
KCA2 051700Z 01009KT 22/M05 A3016 RMK A01 T02171053  RH  016%=      5-min Rain = 0
KCA2 051701Z 36008KT 22/M05 A3016 RMK A01 T02191053  RH  016%=      5-min Rain = 0
KCA2 051702Z 34008KT 22/M05 A3016 RMK A01 T02201053  RH  016%=      5-min Rain = 0
KCA2 051703Z 34011KT 22/M06 A3016 RMK A01 T02191056  RH  015%=      5-min Rain = 0
KCA2 051704Z 35011KT 22/M06 A3016 RMK A01 T02181055  RH  016%=      5-min Rain = 0
KCA2 051705Z 34011KT 22/M06 A3016 RMK A01 T02191056  RH  015%=      5-min Rain = 0
KCA2 051706Z 34009KT 22/M06 A3016 RMK A01 T02171056  RH  015%=      5-min Rain = 0
KCA2 051707Z 33008KT 22/M06 A3016 RMK A01 T02161056  RH  016%=      5-min Rain = 0
KCA2 051708Z 34010KT 22/M06 A3016 RMK A01 T02161056  RH  016%=      5-min Rain = 0
KCA2 051709Z 34007KT 22/M06 A3016 RMK A01 T02161057  RH  015%=      5-min Rain = 0
KCA2 051710Z 35011KT 22/M06 A3016 RMK A01 T02161055  RH  016%=      5-min Rain = 0
KCA2 051711Z 35009KT 22/M06 A3016 RMK A01 T02191055  RH  015%=      5-min Rain = 0
KCA2 051712Z 35007KT 22/M06 A3016 RMK A01 T02191057  RH  015%=      5-min Rain = 0
KCA2 051713Z 34009KT 22/M06 A3016 RMK A01 T02181056  RH  015%=      5-min Rain = 0
KCA2 051714Z 32008KT 22/M06 A3016 RMK A01 T02161058  RH  015%=      5-min Rain = 0
KCA2 051715Z 34005KT 22/M06 A3016 RMK A01 T02151056  RH  016%=      5-min Rain = 0
KCA2 051716Z 36008KT 22/M05 A3016 RMK A01 T02181053  RH  016%=      5-min Rain = 0
KCA2 051717Z 35006KT 22/M06 A3016 RMK A01 T02191056  RH  015%=      5-min Rain = 0
KCA2 051718Z 36008KT 22/M05 A3016 RMK A01 T02201053  RH  016%=      5-min Rain = 0
KCA2 051719Z 32009KT 22/M05 A3016 RMK A01 T02221054  RH  015%=      5-min Rain = 0
KCA2 051720Z 33009KT 22/M05 A3016 RMK A01 T02241051  RH  015%=      5-min Rain = 0
KCA2 051721Z 32009KT 22/M05 A3016 RMK A01 T02231054  RH  015%=      5-min Rain = 0
KCA2 051722Z 32009KT 22/M06 A3016 RMK A01 T02211057  RH  015%=      5-min Rain = 0
KCA2 051723Z 30007KT 22/M06 A3016 RMK A01 T02191055  RH  015%=      5-min Rain = 0
KCA2 051724Z 30010KT 22/M06 A3015 RMK A01 T02191055  RH  015%=      5-min Rain = 0
KCA2 051725Z 31010KT 22/M05 A3015 RMK A01 T02221053  RH  015%=      5-min Rain = 0
KCA2 051726Z 34008KT 22/M05 A3015 RMK A01 T02221053  RH  015%=      5-min Rain = 0
KCA2 051727Z 32007G13KT 22/M05 A3016 RMK A01 T02221054  RH  015%=      5-min Rain = 0
KCA2 051728Z 33012KT 22/M05 A3015 RMK A01 T02221053  RH  015%=      5-min Rain = 0
KCA2 051729Z 33008KT 22/M05 A3015 RMK A01 T02231052  RH  016%=      5-min Rain = 0
KCA2 051730Z 32008KT 22/M05 A3015 RMK A01 T02231052  RH  015%=      5-min Rain = 0
KCA2 051731Z 32006KT 22/M05 A3015 RMK A01 T02241053  RH  015%=      5-min Rain = 0
KCA2 051732Z 30004KT 22/M06 A3016 RMK A01 T02211055  RH  015%=      5-min Rain = 0
KCA2 051733Z 32004KT 22/M05 A3016 RMK A01 T02191054  RH  016%=      5-min Rain = 0
KCA2 051734Z 34005KT 22/M05 A3016 RMK A01 T02191053  RH  016%=      5-min Rain = 0
KCA2 051735Z 02007KT 22/M05 A3016 RMK A01 T02211052  RH  016%=      5-min Rain = 0
KCA2 051736Z 02008KT 22/M05 A3016 RMK A01 T02231054  RH  015%=      5-min Rain = 0
KCA2 051737Z 01008KT 22/M05 A3016 RMK A01 T02231054  RH  015%=      5-min Rain = 0
KCA2 051738Z 35009KT 22/M05 A3016 RMK A01 T02221053  RH  015%=      5-min Rain = 0
KCA2 051739Z 35009KT 22/M05 A3016 RMK A01 T02241053  RH  015%=      5-min Rain = 0
KCA2 051740Z 01006KT 22/M05 A3016 RMK A01 T02241054  RH  015%=      5-min Rain = 0
KCA2 051741Z 02004KT 22/M05 A3016 RMK A01 T02231054  RH  015%=      5-min Rain = 0
KCA2 051742Z 04003KT 22/M05 A3015 RMK A01 T02241054  RH  015%=      5-min Rain = 0
KCA2 051743Z 32002KT 23/M05 A3016 RMK A01 T02251053  RH  015%=      5-min Rain = 0
KCA2 051744Z 03003KT 23/M06 A3016 RMK A01 T02251056  RH  015%=      5-min Rain = 0
KCA2 051745Z 01004KT 22/M06 A3016 RMK A01 T02231056  RH  015%=      5-min Rain = 0
KCA2 051746Z 33013G18KT 23/M05 A3015 RMK A01 T02251052  RH  015%=      5-min Rain = 0
KCA2 051747Z 32011KT 23/M05 A3015 RMK A01 T02251054  RH  015%=      5-min Rain = 0
KCA2 051748Z 33008KT 22/M05 A3016 RMK A01 T02241054  RH  015%=      5-min Rain = 0
KCA2 051749Z 35006KT 22/M06 A3015 RMK A01 T02231055  RH  015%=      5-min Rain = 0
KCA2 051750Z 33007KT 22/M05 A3015 RMK A01 T02231053  RH  015%=      5-min Rain = 0
KCA2 051751Z 32009KT 23/M05 A3015 RMK A01 T02261052  RH  015%=      5-min Rain = 0
KCA2 051752Z 32007KT 22/M06 A3015 RMK A01 T02241055  RH  015%=      5-min Rain = 0
KCA2 051753Z 30005KT 22/M06 A3015 RMK A01 T02211056  RH  015%=      5-min Rain = 0
KCA2 051754Z 32007KT 22/M05 A3015 RMK A01 T02211054  RH  015%=      5-min Rain = 0
KCA2 051755Z 34009KT 23/M05 A3015 RMK A01 T02261050  RH  015%=      5-min Rain = 0
KCA2 051756Z 03007KT 23/M06 A3015 RMK A01 T02291055  RH  015%=      5-min Rain = 0
KCA2 051757Z 35009KT 23/M06 A3015 RMK A01 T02291056  RH  014%=      5-min Rain = 0
KCA2 051758Z 34011KT 23/M06 A3015 RMK A01 T02291056  RH  014%=      5-min Rain = 0
KCA2 051759Z 35010KT 23/M06 A3016 RMK A01 T02291057  RH  014%=      5-min Rain = 0
KCA2 051800Z 36007KT 23/M06 A3016 RMK A01 T02281057  RH  014%=      5-min Rain = 0
KCA2 051801Z 35007KT 23/M06 A3016 RMK A01 T02281057  RH  014%=      5-min Rain = 0
KCA2 051802Z 01005G10KT 23/M06 A3016 RMK A01 T02301057  RH  014%=      5-min Rain = 0
KCA2 051803Z 02010KT 23/M06 A3015 RMK A01 T02301060  RH  014%=      5-min Rain = 0
KCA2 051804Z 36010KT 23/M06 A3015 RMK A01 T02321057  RH  014%=      5-min Rain = 0
KCA2 051805Z 35011KT 23/M06 A3015 RMK A01 T02341058  RH  014%=      5-min Rain = 0
KCA2 051806Z 35011KT 23/M06 A3015 RMK A01 T02321060  RH  014%=      5-min Rain = 0
KCA2 051807Z 35010KT 23/M06 A3015 RMK A01 T02301059  RH  014%=      5-min Rain = 0
KCA2 051808Z 36012KT 23/M06 A3015 RMK A01 T02331056  RH  014%=      5-min Rain = 0
KCA2 051809Z 01009KT 23/M06 A3016 RMK A01 T02341057  RH  014%=      5-min Rain = 0
KCA2 051810Z 01010KT 23/M06 A3016 RMK A01 T02331059  RH  014%=      5-min Rain = 0
KCA2 051811Z 02014KT 23/M06 A3016 RMK A01 T02321061  RH  014%=      5-min Rain = 0
KCA2 051812Z 02014KT 23/M06 A3016 RMK A01 T02301061  RH  014%=      5-min Rain = 0
KCA2 051813Z 03006KT 23/M06 A3016 RMK A01 T02281064  RH  014%=      5-min Rain = 0
KCA2 051814Z 03006G15KT 22/M07 A3016 RMK A01 T02231065  RH  014%=      5-min Rain = 0
KCA2 051815Z 01011KT 23/M06 A3015 RMK A01 T02251060  RH  014%=      5-min Rain = 0
KCA2 051816Z 33008KT 23/M06 A3015 RMK A01 T02281061  RH  014%=      5-min Rain = 0
KCA2 051817Z 34007KT 23/M06 A3015 RMK A01 T02271062  RH  014%=      5-min Rain = 0
KCA2 051818Z 36007KT 23/M06 A3015 RMK A01 T02271061  RH  014%=      5-min Rain = 0
KCA2 051819Z 00010KT 23/M06 A3015 RMK A01 T02291059  RH  014%=      5-min Rain = 0
KCA2 051820Z 00011KT 23/M06 A3015 RMK A01 T02311061  RH  014%=      5-min Rain = 0
KCA2 051821Z 35012KT 23/M06 A3015 RMK A01 T02311061  RH  014%=      5-min Rain = 0
KCA2 051822Z 34011KT 23/M06 A3015 RMK A01 T02291062  RH  014%=      5-min Rain = 0
KCA2 051823Z 35010KT 23/M06 A3015 RMK A01 T02281062  RH  014%=      5-min Rain = 0
KCA2 051824Z 00005KT 22/M07 A3015 RMK A01 T02241066  RH  014%=      5-min Rain = 0
KCA2 051825Z 01007G12KT 22/M06 A3015 RMK A01 T02221063  RH  014%=      5-min Rain = 0
KCA2 051826Z 01002KT 22/M06 A3015 RMK A01 T02241064  RH  014%=      5-min Rain = 0
KCA2 051827Z 01004KT 22/M07 A3015 RMK A01 T02231065  RH  014%=      5-min Rain = 0
KCA2 051828Z 02009G14KT 22/M06 A3015 RMK A01 T02241061  RH  014%=      5-min Rain = 0
KCA2 051829Z 00013KT 23/M06 A3015 RMK A01 T02331057  RH  014%=      5-min Rain = 0
KCA2 051830Z 36011KT 23/M06 A3015 RMK A01 T02321063  RH  013%=      5-min Rain = 0
KCA2 051831Z 36005KT 23/M06 A3015 RMK A01 T02291061  RH  014%=      5-min Rain = 0
KCA2 051832Z 01012KT 23/M06 A3015 RMK A01 T02311062  RH  014%=      5-min Rain = 0
KCA2 051833Z 04009KT 23/M07 A3015 RMK A01 T02291065  RH  013%=      5-min Rain = 0
KCA2 051834Z 03011KT 23/M06 A3015 RMK A01 T02281064  RH  014%=      5-min Rain = 0
KCA2 051835Z 02007KT 23/M07 A3015 RMK A01 T02281065  RH  014%=      5-min Rain = 0
KCA2 051836Z 02006KT 23/M07 A3015 RMK A01 T02251065  RH  014%=      5-min Rain = 0
KCA2 051837Z 04005KT 23/M06 A3015 RMK A01 T02251064  RH  014%=      5-min Rain = 0
KCA2 051838Z 06004KT 23/M06 A3015 RMK A01 T02261063  RH  014%=      5-min Rain = 0
KCA2 051839Z 07004KT 23/M06 A3015 RMK A01 T02271064  RH  014%=      5-min Rain = 0
KCA2 051840Z 35003KT 23/M06 A3015 RMK A01 T02281064  RH  014%=      5-min Rain = 0
KCA2 051841Z 31005KT 23/M06 A3015 RMK A01 T02281061  RH  014%=      5-min Rain = 0
KCA2 051842Z 32007KT 23/M06 A3014 RMK A01 T02301062  RH  014%=      5-min Rain = 0
KCA2 051843Z 31008KT 23/M06 A3014 RMK A01 T02311062  RH  014%=      5-min Rain = 0
KCA2 051844Z 34006KT 23/M06 A3014 RMK A01 T02331061  RH  014%=      5-min Rain = 0
KCA2 051845Z 35008KT 23/M06 A3014 RMK A01 T02341063  RH  013%=      5-min Rain = 0
KCA2 051846Z 33010KT 24/M06 A3014 RMK A01 T02351062  RH  013%=      5-min Rain = 0
KCA2 051847Z 33012KT 24/M06 A3014 RMK A01 T02361064  RH  013%=      5-min Rain = 0
KCA2 051848Z 34011KT 24/M07 A3014 RMK A01 T02351066  RH  013%=      5-min Rain = 0
KCA2 051849Z 35009KT 23/M07 A3014 RMK A01 T02331067  RH  013%=      5-min Rain = 0
KCA2 051850Z 31009KT 23/M06 A3014 RMK A01 T02321064  RH  013%=      5-min Rain = 0
KCA2 051851Z 31012KT 23/M07 A3014 RMK A01 T02341066  RH  013%=      5-min Rain = 0
KCA2 051852Z 32010KT 23/M07 A3014 RMK A01 T02341067  RH  013%=      5-min Rain = 0
KCA2 051853Z 31008KT 23/M07 A3014 RMK A01 T02321068  RH  013%=      5-min Rain = 0
KCA2 051854Z 29005KT 23/M07 A3014 RMK A01 T02301070  RH  013%=      5-min Rain = 0
KCA2 051855Z 32003KT 23/M07 A3014 RMK A01 T02281069  RH  013%=      5-min Rain = 0
KCA2 051856Z 34001KT 23/M07 A3014 RMK A01 T02281072  RH  013%=      5-min Rain = 0
KCA2 051857Z 24002KT 23/M07 A3014 RMK A01 T02271072  RH  013%=      5-min Rain = 0
KCA2 051858Z 27006KT 23/M07 A3014 RMK A01 T02291070  RH  013%=      5-min Rain = 0
KCA2 051859Z 26007KT 23/M07 A3014 RMK A01 T02301071  RH  013%=      5-min Rain = 0
KCA2 051900Z 27008G15KT 23/M07 A3013 RMK A01 T02311068  RH  013%=      5-min Rain = 0
KCA2 051901Z 29014KT 24/M07 A3013 RMK A01 T02361069  RH  012%=      5-min Rain = 0
KCA2 051902Z 31014KT 24/M07 A3013 RMK A01 T02371071  RH  012%=      5-min Rain = 0
KCA2 051903Z 32010KT 24/M07 A3013 RMK A01 T02391069  RH  012%=      5-min Rain = 0
KCA2 051904Z 33011KT 24/M07 A3013 RMK A01 T02391070  RH  012%=      5-min Rain = 0
KCA2 051905Z 33013G18KT 24/M07 A3013 RMK A01 T02401071  RH  012%=      5-min Rain = 0
KCA2 051906Z 33014KT 24/M07 A3013 RMK A01 T02411070  RH  012%=      5-min Rain = 0
KCA2 051907Z 32012KT 24/M07 A3013 RMK A01 T02411069  RH  012%=      5-min Rain = 0
KCA2 051908Z 31012G17KT 24/M07 A3013 RMK A01 T02431069  RH  012%=      5-min Rain = 0
KCA2 051909Z 32009G14KT 24/M07 A3013 RMK A01 T02411071  RH  012%=      5-min Rain = 0
KCA2 051910Z 33007KT 24/M07 A3013 RMK A01 T02371072  RH  012%=      5-min Rain = 0
KCA2 051911Z 33010KT 24/M07 A3013 RMK A01 T02361071  RH  012%=      5-min Rain = 0
KCA2 051912Z 34015KT 24/M07 A3013 RMK A01 T02411069  RH  012%=      5-min Rain = 0
KCA2 051913Z 33017KT 24/M08 A3013 RMK A01 T02381076  RH  012%=      5-min Rain = 0
KCA2 051914Z 33015KT 24/M08 A3013 RMK A01 T02351077  RH  012%=      5-min Rain = 0
KCA2 051915Z 32013G18KT 24/M07 A3013 RMK A01 T02351074  RH  012%=      5-min Rain = 0
KCA2 051916Z 31010KT 24/M07 A3013 RMK A01 T02351073  RH  012%=      5-min Rain = 0
KCA2 051917Z 31008KT 24/M07 A3013 RMK A01 T02381069  RH  012%=      5-min Rain = 0
KCA2 051918Z 31013KT 24/M07 A3013 RMK A01 T02421070  RH  012%=      5-min Rain = 0
KCA2 051919Z 31011G17KT 24/M08 A3013 RMK A01 T02401077  RH  012%=      5-min Rain = 0
KCA2 051920Z 31010KT 24/M07 A3013 RMK A01 T02391073  RH  012%=      5-min Rain = 0
KCA2 051921Z 31009KT 24/M08 A3013 RMK A01 T02401075  RH  012%=      5-min Rain = 0
KCA2 051922Z 32011KT 24/M08 A3013 RMK A01 T02361076  RH  012%=      5-min Rain = 0
KCA2 051923Z 33008KT 24/M08 A3013 RMK A01 T02351076  RH  012%=      5-min Rain = 0
KCA2 051924Z 35006KT 23/M08 A3012 RMK A01 T02341075  RH  012%=      5-min Rain = 0
KCA2 051925Z 34004KT 23/M08 A3012 RMK A01 T02341075  RH  012%=      5-min Rain = 0
KCA2 051926Z 34005KT 23/M08 A3012 RMK A01 T02341075  RH  012%=      5-min Rain = 0
KCA2 051927Z 33010G17KT 24/M07 A3012 RMK A01 T02371070  RH  012%=      5-min Rain = 0
KCA2 051928Z 32014KT 24/M08 A3012 RMK A01 T02411075  RH  012%=      5-min Rain = 0
KCA2 051929Z 32009KT 24/M08 A3012 RMK A01 T02401075  RH  012%=      5-min Rain = 0
KCA2 051930Z 32008KT 24/M08 A3012 RMK A01 T02421075  RH  012%=      5-min Rain = 0
KCA2 051931Z 33010KT 24/M08 A3012 RMK A01 T02381078  RH  012%=      5-min Rain = 0
KCA2 051932Z 30011KT 24/M07 A3012 RMK A01 T02391070  RH  012%=      5-min Rain = 0
KCA2 051933Z 30011KT 24/M07 A3012 RMK A01 T02421070  RH  012%=      5-min Rain = 0
KCA2 051934Z 31010KT 24/M07 A3012 RMK A01 T02421070  RH  012%=      5-min Rain = 0
KCA2 051935Z 34011KT 25/M07 A3012 RMK A01 T02451067  RH  012%=      5-min Rain = 0
KCA2 051936Z 35014KT 25/M07 A3012 RMK A01 T02451070  RH  012%=      5-min Rain = 0
KCA2 051937Z 34011KT 24/M07 A3012 RMK A01 T02421074  RH  012%=      5-min Rain = 0
KCA2 051938Z 32011KT 24/M08 A3012 RMK A01 T02391075  RH  012%=      5-min Rain = 0
KCA2 051939Z 31011G16KT 24/M07 A3011 RMK A01 T02401072  RH  012%=      5-min Rain = 0
KCA2 051940Z 33009KT 24/M07 A3012 RMK A01 T02421072  RH  012%=      5-min Rain = 0
KCA2 051941Z 33006KT 24/M07 A3012 RMK A01 T02411070  RH  012%=      5-min Rain = 0
KCA2 051942Z 33008KT 24/M07 A3012 RMK A01 T02441067  RH  012%=      5-min Rain = 0
KCA2 051943Z 31008KT 24/M07 A3011 RMK A01 T02441070  RH  012%=      5-min Rain = 0
KCA2 051944Z 33009G14KT 24/M07 A3011 RMK A01 T02411072  RH  012%=      5-min Rain = 0
KCA2 051945Z 34011KT 24/M07 A3011 RMK A01 T02411070  RH  012%=      5-min Rain = 0
KCA2 051946Z 33007KT 24/M07 A3011 RMK A01 T02431070  RH  012%=      5-min Rain = 0
KCA2 051947Z 31005KT 24/M07 A3011 RMK A01 T02411073  RH  012%=      5-min Rain = 0
KCA2 051948Z 30009KT 24/M07 A3011 RMK A01 T02401071  RH  012%=      5-min Rain = 0
KCA2 051949Z 31011KT 24/M07 A3011 RMK A01 T02431067  RH  012%=      5-min Rain = 0
KCA2 051950Z 31008KT 25/M07 A3011 RMK A01 T02481069  RH  012%=      5-min Rain = 0
KCA2 051951Z 31007KT 25/M07 A3011 RMK A01 T02471070  RH  012%=      5-min Rain = 0
KCA2 051952Z 33006KT 25/M07 A3011 RMK A01 T02451071  RH  012%=      5-min Rain = 0
KCA2 051953Z 30009KT 25/M07 A3011 RMK A01 T02471071  RH  012%=      5-min Rain = 0
KCA2 051954Z 28007KT 24/M08 A301 RMK A01 T02441075  RH  011%=      5-min Rain = 0
KCA2 051955Z 27006G11KT 24/M07 A301 RMK A01 T02411074  RH  012%=      5-min Rain = 0
KCA2 051956Z 32011G17KT 24/M07 A301 RMK A01 T02421072  RH  012%=      5-min Rain = 0
KCA2 051957Z 01014KT 25/M07 A301 RMK A01 T02461071  RH  012%=      5-min Rain = 0
KCA2 051958Z 35016KT 25/M07 A301 RMK A01 T02461074  RH  011%=      5-min Rain = 0
KCA2 051959Z 34015KT 25/M07 A301 RMK A01 T02461073  RH  011%=      5-min Rain = 0
KCA2 052000Z 32013KT 25/M07 A301 RMK A01 T02461072  RH  012%=      5-min Rain = 0
KCA2 052001Z 31013KT 24/M07 A301 RMK A01 T02431073  RH  012%=      5-min Rain = 0
KCA2 052002Z 33009KT 24/M07 A301 RMK A01 T02421072  RH  012%=      5-min Rain = 0
KCA2 052003Z 34011KT 25/M07 A301 RMK A01 T02471068  RH  012%=      5-min Rain = 0
KCA2 052004Z 32013KT 25/M07 A301 RMK A01 T02491071  RH  011%=      5-min Rain = 0
KCA2 052005Z 32009KT 25/M07 A301 RMK A01 T02451072  RH  012%=      5-min Rain = 0
KCA2 052006Z 34008KT 25/M07 A301 RMK A01 T02471068  RH  012%=      5-min Rain = 0
KCA2 052007Z 34008KT 25/M07 A301 RMK A01 T02491070  RH  011%=      5-min Rain = 0
KCA2 052008Z 35010KT 25/M07 A301 RMK A01 T02451071  RH  012%=      5-min Rain = 0
KCA2 052009Z 36010KT 25/M07 A301 RMK A01 T02451070  RH  012%=      5-min Rain = 0
KCA2 052010Z 35009KT 24/M07 A301 RMK A01 T02441069  RH  012%=      5-min Rain = 0
KCA2 052011Z 34008KT 25/M07 A301 RMK A01 T02471066  RH  012%=      5-min Rain = 0
KCA2 052012Z 34008KT 25/M07 A301 RMK A01 T02501065  RH  012%=      5-min Rain = 0
KCA2 052013Z 33011KT 25/M06 A301 RMK A01 T02531063  RH  012%=      5-min Rain = 0
KCA2 052014Z 35014KT 26/M07 A301 RMK A01 T02551065  RH  011%=      5-min Rain = 0
KCA2 052015Z 35015KT 25/M08 A301 RMK A01 T02521079  RH  011%=      5-min Rain = 0
KCA2 052016Z 01015G21KT 25/M08 A301 RMK A01 T02471082  RH  011%=      5-min Rain = 0
KCA2 052017Z 01016KT 25/M08 A301 RMK A01 T02471079  RH  011%=      5-min Rain = 0
KCA2 052018Z 01013KT 25/M08 A301 RMK A01 T02471076  RH  011%=      5-min Rain = 0
KCA2 052019Z 01011KT 25/M08 A301 RMK A01 T02451077  RH  011%=      5-min Rain = 0
KCA2 052020Z 35012KT 25/M08 A301 RMK A01 T02471076  RH  011%=      5-min Rain = 0
KCA2 052021Z 34012KT 25/M07 A301 RMK A01 T02471074  RH  011%=      5-min Rain = 0
KCA2 052022Z 33013G18KT 25/M07 A3009 RMK A01 T02471073  RH  011%=      5-min Rain = 0
KCA2 052023Z 32012KT 25/M07 A301 RMK A01 T02471073  RH  011%=      5-min Rain = 0
KCA2 052024Z 32011KT 25/M07 A3009 RMK A01 T02451073  RH  012%=      5-min Rain = 0
KCA2 052025Z 34012KT 25/M07 A301 RMK A01 T02501068  RH  012%=      5-min Rain = 0
KCA2 052026Z 35012KT 25/M07 A301 RMK A01 T02521072  RH  011%=      5-min Rain = 0
KCA2 052027Z 35016KT 25/M07 A301 RMK A01 T02531073  RH  011%=      5-min Rain = 0
KCA2 052028Z 34014KT 25/M08 A301 RMK A01 T02491076  RH  011%=      5-min Rain = 0
KCA2 052029Z 34011KT 25/M08 A301 RMK A01 T02461076  RH  011%=      5-min Rain = 0
KCA2 052030Z 36013KT 25/M07 A301 RMK A01 T02461073  RH  011%=      5-min Rain = 0
KCA2 052031Z 35010KT 25/M07 A301 RMK A01 T02491070  RH  011%=      5-min Rain = 0
KCA2 052032Z 36011KT 25/M07 A3009 RMK A01 T02511071  RH  011%=      5-min Rain = 0
KCA2 052033Z 34011KT 25/M07 A3009 RMK A01 T02481072  RH  011%=      5-min Rain = 0
KCA2 052034Z 33010KT 25/M07 A3009 RMK A01 T02481068  RH  012%=      5-min Rain = 0
KCA2 052035Z 36012KT 25/M07 A3009 RMK A01 T02491066  RH  012%=      5-min Rain = 0
KCA2 052036Z 01009KT 25/M07 A3009 RMK A01 T02491069  RH  012%=      5-min Rain = 0
KCA2 052037Z 35009KT 25/M07 A3009 RMK A01 T02461069  RH  012%=      5-min Rain = 0
KCA2 052038Z 35009KT 25/M07 A3009 RMK A01 T02451068  RH  012%=      5-min Rain = 0
KCA2 052039Z 32014G19KT 25/M07 A3009 RMK A01 T02471067  RH  012%=      5-min Rain = 0
KCA2 052040Z 33010KT 25/M07 A3009 RMK A01 T02461068  RH  012%=      5-min Rain = 0
KCA2 052041Z 32010G15KT 25/M07 A3009 RMK A01 T02471065  RH  012%=      5-min Rain = 0
KCA2 052042Z 32018G23KT 25/M07 A3009 RMK A01 T02501065  RH  012%=      5-min Rain = 0
KCA2 052043Z 33012KT 25/M07 A3009 RMK A01 T02501068  RH  012%=      5-min Rain = 0
KCA2 052044Z 33016KT 25/M07 A3009 RMK A01 T02481068  RH  012%=      5-min Rain = 0
KCA2 052045Z 34015KT 25/M07 A3009 RMK A01 T02491067  RH  012%=      5-min Rain = 0
KCA2 052046Z 01014KT 25/M07 A3009 RMK A01 T02511069  RH  011%=      5-min Rain = 0
KCA2 052047Z 35011KT 25/M07 A3009 RMK A01 T02481071  RH  011%=      5-min Rain = 0
KCA2 052048Z 01011KT 25/M07 A3009 RMK A01 T02481070  RH  012%=      5-min Rain = 0
KCA2 052049Z 00014G19KT 25/M07 A3009 RMK A01 T02491068  RH  012%=      5-min Rain = 0
KCA2 052050Z 34012KT 25/M07 A3009 RMK A01 T02491067  RH  012%=      5-min Rain = 0
KCA2 052051Z 34011G18KT 25/M06 A3009 RMK A01 T02501063  RH  012%=      5-min Rain = 0
KCA2 052052Z 33017KT 26/M06 A3009 RMK A01 T02551059  RH  012%=      5-min Rain = 0
KCA2 052053Z 34012G18KT 26/M06 A3009 RMK A01 T02551060  RH  012%=      5-min Rain = 0
KCA2 052054Z 35015KT 26/M06 A3008 RMK A01 T02551061  RH  012%=      5-min Rain = 0
KCA2 052055Z 35014KT 25/M06 A3008 RMK A01 T02531062  RH  012%=      5-min Rain = 0
KCA2 052056Z 32014KT 25/M06 A3008 RMK A01 T02521059  RH  012%=      5-min Rain = 0
KCA2 052057Z 33015KT 26/M06 A3009 RMK A01 T02561059  RH  012%=      5-min Rain = 0
KCA2 052058Z 33013KT 25/M06 A3008 RMK A01 T02521063  RH  012%=      5-min Rain = 0
KCA2 052059Z 32011KT 25/M06 A3008 RMK A01 T02491064  RH  012%=      5-min Rain = 0
KCA2 052100Z 31012KT 25/M06 A3008 RMK A01 T02491060  RH  012%=      5-min Rain = 0
KCA2 052101Z 32011KT 25/M06 A3008 RMK A01 T02521060  RH  012%=      5-min Rain = 0
KCA2 052102Z 31011KT 25/M06 A3008 RMK A01 T02521061  RH  012%=      5-min Rain = 0
KCA2 052103Z 32012KT 25/M06 A3008 RMK A01 T02521061  RH  012%=      5-min Rain = 0
KCA2 052104Z 32011KT 25/M06 A3008 RMK A01 T02531059  RH  012%=      5-min Rain = 0
KCA2 052105Z 32011KT 26/M06 A3008 RMK A01 T02551060  RH  012%=      5-min Rain = 0
KCA2 052106Z 31011KT 25/M06 A3008 RMK A01 T02541062  RH  012%=      5-min Rain = 0
KCA2 052107Z 30008KT 25/M07 A3008 RMK A01 T02501066  RH  012%=      5-min Rain = 0
KCA2 052108Z 32014KT 25/M06 A3008 RMK A01 T02481064  RH  012%=      5-min Rain = 0
KCA2 052109Z 32013KT 25/M06 A3008 RMK A01 T02511063  RH  012%=      5-min Rain = 0
KCA2 052110Z 32014KT 25/M06 A3008 RMK A01 T02511064  RH  012%=      5-min Rain = 0
KCA2 052111Z 35012KT 25/M06 A3008 RMK A01 T02541062  RH  012%=      5-min Rain = 0
KCA2 052112Z 34009KT 26/M06 A3009 RMK A01 T02551060  RH  012%=      5-min Rain = 0
KCA2 052113Z 33011KT 26/M06 A3008 RMK A01 T02561061  RH  012%=      5-min Rain = 0
KCA2 052114Z 33012KT 26/M06 A3008 RMK A01 T02571060  RH  012%=      5-min Rain = 0
KCA2 052115Z 31010KT 25/M06 A3008 RMK A01 T02531064  RH  012%=      5-min Rain = 0
KCA2 052116Z 33010KT 25/M06 A3008 RMK A01 T02521062  RH  012%=      5-min Rain = 0
KCA2 052117Z 35008KT 25/M06 A3008 RMK A01 T02531061  RH  012%=      5-min Rain = 0
KCA2 052118Z 34009KT 25/M06 A3008 RMK A01 T02521063  RH  012%=      5-min Rain = 0
KCA2 052119Z 00010KT 25/M06 A3008 RMK A01 T02521061  RH  012%=      5-min Rain = 0
KCA2 052120Z 00008KT 25/M06 A3008 RMK A01 T02531064  RH  012%=      5-min Rain = 0
KCA2 052121Z 34008KT 25/M06 A3008 RMK A01 T02531064  RH  012%=      5-min Rain = 0
KCA2 052122Z 02008KT 26/M06 A3008 RMK A01 T02551063  RH  012%=      5-min Rain = 0
KCA2 052123Z 03010KT 26/M06 A3008 RMK A01 T02581060  RH  012%=      5-min Rain = 0
KCA2 052124Z 02009G15KT 26/M06 A3008 RMK A01 T02601062  RH  011%=      5-min Rain = 0
KCA2 052125Z 02015KT 26/M06 A3008 RMK A01 T02601061  RH  012%=      5-min Rain = 0
KCA2 052126Z 02013KT 26/M06 A3008 RMK A01 T02571061  RH  012%=      5-min Rain = 0
KCA2 052127Z 02014KT 26/M06 A3008 RMK A01 T02561060  RH  012%=      5-min Rain = 0
KCA2 052128Z 01015KT 26/M06 A3008 RMK A01 T02581058  RH  012%=      5-min Rain = 0
KCA2 052129Z 01013KT 26/M06 A3008 RMK A01 T02561060  RH  012%=      5-min Rain = 0
KCA2 052130Z 02012KT 26/M06 A3009 RMK A01 T02551060  RH  012%=      5-min Rain = 0
KCA2 052131Z 02008KT 25/M06 A3008 RMK A01 T02541060  RH  012%=      5-min Rain = 0
KCA2 052132Z 03012KT 26/M06 A3008 RMK A01 T02551058  RH  012%=      5-min Rain = 0
KCA2 052133Z 04008KT 25/M06 A3008 RMK A01 T02541061  RH  012%=      5-min Rain = 0
KCA2 052134Z 02008KT 25/M06 A3008 RMK A01 T02521061  RH  012%=      5-min Rain = 0
KCA2 052135Z 00014KT 25/M06 A3008 RMK A01 T02521059  RH  012%=      5-min Rain = 0
KCA2 052136Z 01017G22KT 25/M06 A3009 RMK A01 T02541057  RH  012%=      5-min Rain = 0
KCA2 052137Z 01013KT 25/M06 A3009 RMK A01 T02521059  RH  012%=      5-min Rain = 0
KCA2 052138Z 36009G14KT 25/M06 A3009 RMK A01 T02501057  RH  013%=      5-min Rain = 0
KCA2 052139Z 02008KT 25/M06 A3009 RMK A01 T02491055  RH  013%=      5-min Rain = 0
KCA2 052140Z 02009KT 25/M06 A3008 RMK A01 T02501055  RH  013%=      5-min Rain = 0
KCA2 052141Z 01007KT 25/M05 A3008 RMK A01 T02501054  RH  013%=      5-min Rain = 0
KCA2 052142Z 35009G17KT 25/M05 A3008 RMK A01 T02521053  RH  013%=      5-min Rain = 0
KCA2 052143Z 35015KT 26/M05 A3009 RMK A01 T02561052  RH  013%=      5-min Rain = 0
KCA2 052144Z 35018KT 26/M06 A3009 RMK A01 T02561055  RH  012%=      5-min Rain = 0
KCA2 052145Z 35014G19KT 25/M05 A3009 RMK A01 T02531054  RH  013%=      5-min Rain = 0
KCA2 052146Z 35016KT 25/M05 A3009 RMK A01 T02531053  RH  013%=      5-min Rain = 0
KCA2 052147Z 35016KT 25/M06 A3009 RMK A01 T02521055  RH  013%=      5-min Rain = 0
KCA2 052148Z 36014KT 25/M06 A3009 RMK A01 T02491056  RH  013%=      5-min Rain = 0
KCA2 052149Z 35013G18KT 25/M05 A3009 RMK A01 T02491053  RH  013%=      5-min Rain = 0
KCA2 052150Z 34011G16KT 25/M05 A3009 RMK A01 T02521051  RH  013%=      5-min Rain = 0
KCA2 052151Z 33008KT 25/M05 A3009 RMK A01 T02531053  RH  013%=      5-min Rain = 0
KCA2 052152Z 35009KT 25/M05 A3009 RMK A01 T02521052  RH  013%=      5-min Rain = 0
KCA2 052153Z 35013KT 25/M05 A3009 RMK A01 T02521053  RH  013%=      5-min Rain = 0
KCA2 052154Z 35011KT 25/M05 A3009 RMK A01 T02521054  RH  013%=      5-min Rain = 0
KCA2 052155Z 36011KT 25/M06 A3009 RMK A01 T02511055  RH  013%=      5-min Rain = 0
KCA2 052156Z 36008KT 25/M06 A3009 RMK A01 T02501057  RH  013%=      5-min Rain = 0
KCA2 052157Z 36008KT 25/M05 A3008 RMK A01 T02511053  RH  013%=      5-min Rain = 0
KCA2 052158Z 01009KT 25/M05 A3009 RMK A01 T02531053  RH  013%=      5-min Rain = 0
KCA2 052159Z 01008KT 25/M05 A3008 RMK A01 T02541054  RH  013%=      5-min Rain = 0
KCA2 052200Z 34010KT 25/M05 A3008 RMK A01 T02541052  RH  013%=      5-min Rain = 0
KCA2 052201Z 33012KT 26/M05 A3008 RMK A01 T02551052  RH  013%=      5-min Rain = 0
KCA2 052202Z 32011KT 26/M06 A3008 RMK A01 T02561056  RH  012%=      5-min Rain = 0
KCA2 052203Z 34008KT 25/M06 A3008 RMK A01 T02541058  RH  012%=      5-min Rain = 0
KCA2 052204Z 01010KT 25/M06 A3008 RMK A01 T02531059  RH  012%=      5-min Rain = 0
KCA2 052205Z 00010G15KT 25/M06 A3008 RMK A01 T02531061  RH  012%=      5-min Rain = 0
KCA2 052206Z 35011G17KT 25/M06 A3008 RMK A01 T02531059  RH  012%=      5-min Rain = 0
KCA2 052207Z 00016KT 26/M06 A3008 RMK A01 T02561061  RH  012%=      5-min Rain = 0
KCA2 052208Z 36018KT 26/M06 A3008 RMK A01 T02551064  RH  012%=      5-min Rain = 0
KCA2 052209Z 34018KT 25/M06 A3008 RMK A01 T02531064  RH  012%=      5-min Rain = 0
KCA2 052210Z 35018KT 25/M06 A3008 RMK A01 T02521063  RH  012%=      5-min Rain = 0
KCA2 052211Z 34016KT 25/M06 A3008 RMK A01 T02521062  RH  012%=      5-min Rain = 0
KCA2 052212Z 34014KT 25/M06 A3008 RMK A01 T02521062  RH  012%=      5-min Rain = 0
KCA2 052213Z 34015KT 25/M06 A3008 RMK A01 T02521062  RH  012%=      5-min Rain = 0
KCA2 052214Z 34016KT 25/M06 A3008 RMK A01 T02501063  RH  012%=      5-min Rain = 0
KCA2 052215Z 33014KT 25/M06 A3008 RMK A01 T02501063  RH  012%=      5-min Rain = 0
KCA2 052216Z 33012G17KT 25/M06 A3008 RMK A01 T02501062  RH  012%=      5-min Rain = 0
KCA2 052217Z 35010G16KT 25/M07 A3008 RMK A01 T02501065  RH  012%=      5-min Rain = 0
KCA2 052218Z 32011KT 25/M06 A3008 RMK A01 T02501061  RH  012%=      5-min Rain = 0
KCA2 052219Z 33015KT 25/M06 A3008 RMK A01 T02531061  RH  012%=      5-min Rain = 0
KCA2 052220Z 33016KT 25/M06 A3008 RMK A01 T02541062  RH  012%=      5-min Rain = 0
KCA2 052221Z 34013KT 26/M06 A3008 RMK A01 T02551063  RH  012%=      5-min Rain = 0
KCA2 052222Z 33013KT 26/M06 A3008 RMK A01 T02551061  RH  012%=      5-min Rain = 0
KCA2 052223Z 34012KT 26/M06 A3008 RMK A01 T02561062  RH  012%=      5-min Rain = 0
KCA2 052224Z 34012KT 26/M06 A3008 RMK A01 T02551063  RH  012%=      5-min Rain = 0
KCA2 052225Z 32013KT 25/M06 A3008 RMK A01 T02541062  RH  012%=      5-min Rain = 0
KCA2 052226Z 33007KT 25/M07 A3008 RMK A01 T02541065  RH  012%=      5-min Rain = 0
KCA2 052227Z 31005KT 25/M06 A3008 RMK A01 T02531061  RH  012%=      5-min Rain = 0
KCA2 052228Z 32009G15KT 26/M06 A3008 RMK A01 T02551061  RH  012%=      5-min Rain = 0
KCA2 052229Z 34011KT 26/M06 A3008 RMK A01 T02561061  RH  012%=      5-min Rain = 0
KCA2 052230Z 34009KT 26/M06 A3008 RMK A01 T02561063  RH  012%=      5-min Rain = 0
KCA2 052231Z 35012G18KT 26/M06 A3008 RMK A01 T02561062  RH  012%=      5-min Rain = 0
KCA2 052232Z 36012KT 26/M06 A3008 RMK A01 T02561064  RH  012%=      5-min Rain = 0
KCA2 052233Z 01016KT 26/M07 A3008 RMK A01 T02561065  RH  011%=      5-min Rain = 0
KCA2 052234Z 01015KT 26/M07 A3008 RMK A01 T02571066  RH  011%=      5-min Rain = 0
KCA2 052235Z 00013KT 26/M07 A3008 RMK A01 T02571066  RH  011%=      5-min Rain = 0
KCA2 052236Z 01016KT 26/M07 A3008 RMK A01 T02571067  RH  011%=      5-min Rain = 0
KCA2 052237Z 01013G18KT 26/M07 A3008 RMK A01 T02561068  RH  011%=      5-min Rain = 0
KCA2 052238Z 01012KT 26/M07 A3008 RMK A01 T02551068  RH  011%=      5-min Rain = 0
KCA2 052239Z 01010KT 26/M07 A3008 RMK A01 T02551067  RH  011%=      5-min Rain = 0
KCA2 052240Z 34012KT 25/M07 A3007 RMK A01 T02541065  RH  012%=      5-min Rain = 0
KCA2 052241Z 34013G18KT 26/M07 A3007 RMK A01 T02551065  RH  012%=      5-min Rain = 0
KCA2 052242Z 33010KT 26/M06 A3008 RMK A01 T02551064  RH  012%=      5-min Rain = 0
KCA2 052243Z 35013G18KT 26/M06 A3008 RMK A01 T02581061  RH  012%=      5-min Rain = 0
KCA2 052244Z 35014G20KT 26/M06 A3008 RMK A01 T02591061  RH  012%=      5-min Rain = 0
KCA2 052245Z 36014KT 26/M06 A3008 RMK A01 T02581063  RH  011%=      5-min Rain = 0
KCA2 052246Z 01013KT 26/M06 A3008 RMK A01 T02561062  RH  012%=      5-min Rain = 0
KCA2 052247Z 35013KT 26/M06 A3008 RMK A01 T02561060  RH  012%=      5-min Rain = 0
KCA2 052248Z 01015KT 26/M06 A3008 RMK A01 T02561060  RH  012%=      5-min Rain = 0
KCA2 052249Z 01014KT 26/M06 A3008 RMK A01 T02561059  RH  012%=      5-min Rain = 0
KCA2 052250Z 00011KT 26/M06 A3008 RMK A01 T02571059  RH  012%=      5-min Rain = 0
KCA2 052251Z 02012G17KT 26/M06 A3008 RMK A01 T02571059  RH  012%=      5-min Rain = 0
KCA2 052252Z 00017KT 26/M06 A3007 RMK A01 T02571061  RH  012%=      5-min Rain = 0
KCA2 052253Z 36015KT 26/M06 A3008 RMK A01 T02561060  RH  012%=      5-min Rain = 0
KCA2 052254Z 00015KT 25/M06 A3008 RMK A01 T02541058  RH  012%=      5-min Rain = 0
KCA2 052255Z 36016KT 25/M06 A3008 RMK A01 T02531058  RH  012%=      5-min Rain = 0
KCA2 052256Z 00016KT 25/M06 A3008 RMK A01 T02541057  RH  012%=      5-min Rain = 0
KCA2 052257Z 01013KT 25/M06 A3008 RMK A01 T02531056  RH  012%=      5-min Rain = 0
KCA2 052258Z 00011KT 26/M06 A3008 RMK A01 T02551055  RH  012%=      5-min Rain = 0
KCA2 052259Z 00014G20KT 26/M05 A3008 RMK A01 T02571054  RH  012%=      5-min Rain = 0
KCA2 052300Z 00013KT 26/M05 A3008 RMK A01 T02561053  RH  013%=      5-min Rain = 0
KCA2 052301Z 36014KT 26/M05 A3008 RMK A01 T02551052  RH  013%=      5-min Rain = 0
KCA2 052302Z 36010KT 25/M05 A3008 RMK A01 T02541052  RH  013%=      5-min Rain = 0
KCA2 052303Z 36010KT 25/M05 A3008 RMK A01 T02531051  RH  013%=      5-min Rain = 0
KCA2 052304Z 36010KT 25/M05 A3007 RMK A01 T02521051  RH  013%=      5-min Rain = 0
KCA2 052305Z 35008KT 25/M05 A3007 RMK A01 T02521048  RH  013%=      5-min Rain = 0
KCA2 052306Z 35007KT 25/M05 A3007 RMK A01 T02521049  RH  013%=      5-min Rain = 0
KCA2 052307Z 00011G16KT 25/M05 A3007 RMK A01 T02531048  RH  013%=      5-min Rain = 0
KCA2 052308Z 01014KT 25/M05 A3007 RMK A01 T02541049  RH  013%=      5-min Rain = 0
KCA2 052309Z 02011KT 25/M05 A3008 RMK A01 T02541050  RH  013%=      5-min Rain = 0
KCA2 052310Z 01009KT 25/M05 A3007 RMK A01 T02541051  RH  013%=      5-min Rain = 0
KCA2 052311Z 00008KT 25/M05 A3007 RMK A01 T02541050  RH  013%=      5-min Rain = 0
KCA2 052312Z 01009KT 26/M05 A3008 RMK A01 T02551049  RH  013%=      5-min Rain = 0
KCA2 052313Z 35009KT 26/M05 A3008 RMK A01 T02561047  RH  013%=      5-min Rain = 0
KCA2 052314Z 35010KT 26/M05 A3008 RMK A01 T02551048  RH  013%=      5-min Rain = 0
KCA2 052315Z 02010KT 25/M05 A3008 RMK A01 T02541045  RH  014%=      5-min Rain = 0
KCA2 052316Z 03008KT 26/M04 A3008 RMK A01 T02551037  RH  014%=      5-min Rain = 0
KCA2 052317Z 03008KT 26/M03 A3008 RMK A01 T02551034  RH  015%=      5-min Rain = 0
KCA2 052318Z 03010KT 25/M04 A3008 RMK A01 T02531035  RH  015%=      5-min Rain = 0
KCA2 052319Z 01009KT 25/M04 A3008 RMK A01 T02511035  RH  015%=      5-min Rain = 0
KCA2 052320Z 35009KT 25/M04 A3008 RMK A01 T02501035  RH  015%=      5-min Rain = 0
KCA2 052321Z 35011G16KT 25/M04 A3008 RMK A01 T02501038  RH  015%=      5-min Rain = 0
KCA2 052322Z 34012KT 25/M04 A3008 RMK A01 T02491039  RH  015%=      5-min Rain = 0
KCA2 052323Z 36010KT 25/M04 A3008 RMK A01 T02501039  RH  015%=      5-min Rain = 0
KCA2 052324Z 35011KT 25/M04 A3008 RMK A01 T02501039  RH  014%=      5-min Rain = 0
KCA2 052325Z 35009G15KT 25/M04 A3008 RMK A01 T02501037  RH  015%=      5-min Rain = 0
KCA2 052326Z 36016KT 25/M04 A3008 RMK A01 T02521037  RH  015%=      5-min Rain = 0
KCA2 052327Z 36015KT 25/M04 A3008 RMK A01 T02521037  RH  015%=      5-min Rain = 0
KCA2 052328Z 36016KT 25/M04 A3008 RMK A01 T02511037  RH  015%=      5-min Rain = 0
KCA2 052329Z 36013KT 25/M04 A3008 RMK A01 T02501037  RH  015%=      5-min Rain = 0
KCA2 052330Z 00013KT 25/M04 A3008 RMK A01 T02501035  RH  015%=      5-min Rain = 0
KCA2 052331Z 00012KT 25/M03 A3008 RMK A01 T02491033  RH  015%=      5-min Rain = 0
KCA2 052332Z 02018KT 25/M03 A3008 RMK A01 T02501031  RH  015%=      5-min Rain = 0
KCA2 052333Z 02018KT 25/M03 A3008 RMK A01 T02491031  RH  015%=      5-min Rain = 0
KCA2 052334Z 03013KT 25/M03 A3008 RMK A01 T02481031  RH  016%=      5-min Rain = 0
KCA2 052335Z 02014KT 25/M03 A3008 RMK A01 T02481031  RH  016%=      5-min Rain = 0
KCA2 052336Z 03012KT 25/M03 A3008 RMK A01 T02481030  RH  016%=      5-min Rain = 0
KCA2 052337Z 03013G19KT 25/M03 A3008 RMK A01 T02481030  RH  016%=      5-min Rain = 0
KCA2 052338Z 04011KT 25/M03 A3009 RMK A01 T02481028  RH  016%=      5-min Rain = 0
KCA2 052339Z 04015KT 25/M03 A3009 RMK A01 T02471029  RH  016%=      5-min Rain = 0
KCA2 052340Z 05014KT 25/M03 A3009 RMK A01 T02461029  RH  016%=      5-min Rain = 0
KCA2 052341Z 04014G20KT 25/M03 A3009 RMK A01 T02451028  RH  016%=      5-min Rain = 0
KCA2 052342Z 04016KT 25/M03 A3009 RMK A01 T02451028  RH  016%=      5-min Rain = 0
KCA2 052343Z 03016KT 24/M03 A3009 RMK A01 T02441028  RH  016%=      5-min Rain = 0
KCA2 052344Z 02016KT 24/M03 A3009 RMK A01 T02441028  RH  016%=      5-min Rain = 0
KCA2 052345Z 02015KT 25/M03 A3009 RMK A01 T02451027  RH  016%=      5-min Rain = 0
KCA2 052346Z 03015KT 25/M03 A3009 RMK A01 T02451027  RH  016%=      5-min Rain = 0
KCA2 052347Z 03013G18KT 24/M03 A3009 RMK A01 T02441027  RH  016%=      5-min Rain = 0
KCA2 052348Z 02010KT 24/M03 A3009 RMK A01 T02441027  RH  016%=      5-min Rain = 0
KCA2 052349Z 05016G21KT 24/M03 A3009 RMK A01 T02441026  RH  016%=      5-min Rain = 0
KCA2 052350Z 04016G22KT 24/M03 A3009 RMK A01 T02441026  RH  016%=      5-min Rain = 0
KCA2 052351Z 04018KT 24/M03 A3009 RMK A01 T02431026  RH  017%=      5-min Rain = 0
KCA2 052352Z 04017KT 24/M03 A3009 RMK A01 T02421027  RH  017%=      5-min Rain = 0
KCA2 052353Z 04016KT 24/M03 A3009 RMK A01 T02411026  RH  017%=      5-min Rain = 0
KCA2 052354Z 04014KT 24/M03 A3009 RMK A01 T02411026  RH  017%=      5-min Rain = 0
KCA2 052355Z 03012KT 24/M03 A3009 RMK A01 T02411025  RH  017%=      5-min Rain = 0
KCA2 052356Z 03014KT 24/M02 A3009 RMK A01 T02431024  RH  017%=      5-min Rain = 0
KCA2 052357Z 04014KT 24/M03 A3009 RMK A01 T02441025  RH  017%=      5-min Rain = 0
KCA2 052358Z 03014KT 24/M03 A3009 RMK A01 T02441025  RH  017%=      5-min Rain = 0
KCA2 052359Z 02011KT 24/M03 A3009 RMK A01 T02431025  RH  017%=      5-min Rain = 0
KCA2 060000Z 02017G22KT 24/M03 A3009 RMK A01 T02431025  RH  017%=      5-min Rain = 0
KCA2 060001Z 02017KT 24/M02 A3009 RMK A01 T02421024  RH  017%=      5-min Rain = 0
KCA2 060002Z 02017KT 24/M02 A3009 RMK A01 T02411024  RH  017%=      5-min Rain = 0
KCA2 060003Z 03019KT 24/M02 A3009 RMK A01 T02401024  RH  017%=      5-min Rain = 0
KCA2 060004Z 03020KT 24/M02 A3009 RMK A01 T02401023  RH  017%=      5-min Rain = 0
KCA2 060005Z 02016KT 24/M02 A3009 RMK A01 T02391023  RH  017%=      5-min Rain = 0
KCA2 060006Z 02015KT 24/M02 A3009 RMK A01 T02391023  RH  017%=      5-min Rain = 0
KCA2 060007Z 03014KT 24/M02 A3009 RMK A01 T02391023  RH  017%=      5-min Rain = 0
KCA2 060008Z 03017KT 24/M02 A3009 RMK A01 T02391023  RH  017%=      5-min Rain = 0
KCA2 060009Z 03014KT 24/M02 A3009 RMK A01 T02381023  RH  017%=      5-min Rain = 0
KCA2 060010Z 03016KT 24/M02 A301 RMK A01 T02381023  RH  018%=      5-min Rain = 0
KCA2 060011Z 04014G19KT 24/M02 A301 RMK A01 T02381022  RH  018%=      5-min Rain = 0
KCA2 060012Z 03014KT 24/M02 A301 RMK A01 T02371022  RH  018%=      5-min Rain = 0
KCA2 060013Z 03014G19KT 24/M02 A301 RMK A01 T02381022  RH  018%=      5-min Rain = 0
KCA2 060014Z 02015KT 24/M02 A301 RMK A01 T02381022  RH  018%=      5-min Rain = 0
KCA2 060015Z 03014KT 24/M02 A301 RMK A01 T02381021  RH  018%=      5-min Rain = 0
KCA2 060016Z 03014KT 24/M02 A301 RMK A01 T02381021  RH  018%=      5-min Rain = 0
KCA2 060017Z 03016KT 24/M02 A301 RMK A01 T02371020  RH  018%=      5-min Rain = 0
KCA2 060018Z 03015KT 24/M02 A301 RMK A01 T02371020  RH  018%=      5-min Rain = 0
KCA2 060019Z 03018KT 24/M02 A301 RMK A01 T02361020  RH  018%=      5-min Rain = 0
KCA2 060020Z 03017G22KT 24/M02 A301 RMK A01 T02351019  RH  018%=      5-min Rain = 0
KCA2 060021Z 03018KT 23/M02 A301 RMK A01 T02341019  RH  018%=      5-min Rain = 0
KCA2 060022Z 03016KT 23/M02 A301 RMK A01 T02341019  RH  019%=      5-min Rain = 0
KCA2 060023Z 03019KT 23/M02 A301 RMK A01 T02341018  RH  019%=      5-min Rain = 0
KCA2 060024Z 03016G21KT 23/M02 A301 RMK A01 T02341017  RH  019%=      5-min Rain = 0
KCA2 060025Z 03015G20KT 23/M02 A301 RMK A01 T02331016  RH  019%=      5-min Rain = 0
KCA2 060026Z 02009KT 23/M02 A301 RMK A01 T02331015  RH  019%=      5-min Rain = 0
KCA2 060027Z 01009KT 23/M02 A301 RMK A01 T02331015  RH  019%=      5-min Rain = 0
KCA2 060028Z 02009KT 23/M02 A301 RMK A01 T02341016  RH  019%=      5-min Rain = 0
KCA2 060029Z 02012G17KT 23/M02 A301 RMK A01 T02341016  RH  019%=      5-min Rain = 0
KCA2 060030Z 01011KT 23/M02 A301 RMK A01 T02341016  RH  019%=      5-min Rain = 0
KCA2 060031Z 01013G18KT 23/M02 A301 RMK A01 T02341015  RH  019%=      5-min Rain = 0
KCA2 060032Z 01015KT 23/M02 A301 RMK A01 T02331015  RH  019%=      5-min Rain = 0
KCA2 060033Z 01014KT 23/M01 A3011 RMK A01 T02321014  RH  019%=      5-min Rain = 0
KCA2 060034Z 02014KT 23/M01 A3011 RMK A01 T02321014  RH  019%=      5-min Rain = 0
KCA2 060035Z 02012KT 23/M01 A3011 RMK A01 T02311014  RH  020%=      5-min Rain = 0
KCA2 060036Z 01014KT 23/M02 A3011 RMK A01 T02311015  RH  019%=      5-min Rain = 0
KCA2 060037Z 02016KT 23/M02 A3011 RMK A01 T02311015  RH  019%=      5-min Rain = 0
KCA2 060038Z 01014KT 23/M02 A3011 RMK A01 T02301015  RH  019%=      5-min Rain = 0
KCA2 060039Z 01015KT 23/M01 A3011 RMK A01 T02301014  RH  020%=      5-min Rain = 0
KCA2 060040Z 01016KT 23/M02 A3011 RMK A01 T02301016  RH  019%=      5-min Rain = 0
KCA2 060041Z 01013KT 23/M02 A3011 RMK A01 T02291017  RH  019%=      5-min Rain = 0
KCA2 060042Z 02010KT 23/M02 A3011 RMK A01 T02291016  RH  019%=      5-min Rain = 0
KCA2 060043Z 01011KT 23/M02 A3011 RMK A01 T02291016  RH  020%=      5-min Rain = 0
KCA2 060044Z 01011KT 23/M02 A3011 RMK A01 T02291015  RH  020%=      5-min Rain = 0
KCA2 060045Z 01011KT 23/M02 A3011 RMK A01 T02281015  RH  020%=      5-min Rain = 0
KCA2 060046Z 01010KT 23/M01 A3011 RMK A01 T02281014  RH  020%=      5-min Rain = 0
KCA2 060047Z 03014KT 23/M01 A3011 RMK A01 T02271013  RH  020%=      5-min Rain = 0
KCA2 060048Z 01014KT 23/M01 A3011 RMK A01 T02271013  RH  020%=      5-min Rain = 0
KCA2 060049Z 02013KT 23/M01 A3011 RMK A01 T02271013  RH  020%=      5-min Rain = 0
KCA2 060050Z 02014KT 23/M01 A3011 RMK A01 T02271012  RH  020%=      5-min Rain = 0
KCA2 060051Z 01014KT 23/M01 A3011 RMK A01 T02261012  RH  020%=      5-min Rain = 0
KCA2 060052Z 02012KT 23/M01 A3011 RMK A01 T02261012  RH  021%=      5-min Rain = 0
KCA2 060053Z 02014KT 23/M01 A3011 RMK A01 T02261011  RH  021%=      5-min Rain = 0
KCA2 060054Z 02012KT 23/M01 A3011 RMK A01 T02261011  RH  021%=      5-min Rain = 0
KCA2 060055Z 02011KT 23/M01 A3011 RMK A01 T02251011  RH  021%=      5-min Rain = 0
KCA2 060056Z 02010KT 23/M01 A3012 RMK A01 T02251010  RH  021%=      5-min Rain = 0
KCA2 060057Z 01010KT 23/M01 A3012 RMK A01 T02251010  RH  021%=      5-min Rain = 0
KCA2 060058Z 01012KT 22/M01 A3012 RMK A01 T02241010  RH  021%=      5-min Rain = 0
KCA2 060059Z 01013KT 22/M01 A3012 RMK A01 T02241008  RH  021%=      5-min Rain = 0
KCA2 060100Z 01011KT 22/M01 A3012 RMK A01 T02231008  RH  021%=      5-min Rain = 0
KCA2 060101Z 01011KT 22/M01 A3012 RMK A01 T02231008  RH  021%=      5-min Rain = 0
KCA2 060102Z 01013KT 22/M01 A3012 RMK A01 T02231008  RH  021%=      5-min Rain = 0
KCA2 060103Z 01015KT 22/M01 A3012 RMK A01 T02221008  RH  021%=      5-min Rain = 0
KCA2 060104Z 01013KT 22/M01 A3012 RMK A01 T02221008  RH  021%=      5-min Rain = 0
KCA2 060105Z 01014KT 22/M01 A3012 RMK A01 T02231008  RH  021%=      5-min Rain = 0
KCA2 060106Z 01013KT 22/M01 A3012 RMK A01 T02221008  RH  021%=      5-min Rain = 0
KCA2 060107Z 01011KT 22/M01 A3012 RMK A01 T02221008  RH  021%=      5-min Rain = 0
KCA2 060108Z 01012KT 22/M01 A3012 RMK A01 T02221008  RH  022%=      5-min Rain = 0
KCA2 060109Z 01009KT 22/M01 A3012 RMK A01 T02221007  RH  022%=      5-min Rain = 0
KCA2 060110Z 01009KT 22/M01 A3012 RMK A01 T02211008  RH  022%=      5-min Rain = 0
KCA2 060111Z 01007KT 22/M01 A3012 RMK A01 T02211008  RH  022%=      5-min Rain = 0
KCA2 060112Z 01008KT 22/M01 A3013 RMK A01 T02201007  RH  022%=      5-min Rain = 0
KCA2 060113Z 01010KT 22/M01 A3013 RMK A01 T02201007  RH  022%=      5-min Rain = 0
KCA2 060114Z 01010KT 22/M01 A3013 RMK A01 T02201007  RH  022%=      5-min Rain = 0
KCA2 060115Z 01009KT 22/M01 A3013 RMK A01 T02201007  RH  022%=      5-min Rain = 0
KCA2 060116Z 01009KT 22/M01 A3013 RMK A01 T02201007  RH  022%=      5-min Rain = 0
KCA2 060117Z 01007KT 22/M01 A3013 RMK A01 T02191007  RH  022%=      5-min Rain = 0
KCA2 060118Z 01007KT 22/M01 A3013 RMK A01 T02191007  RH  022%=      5-min Rain = 0
KCA2 060119Z 01006KT 22/M01 A3013 RMK A01 T02181006  RH  022%=      5-min Rain = 0
KCA2 060120Z 01007KT 22/M01 A3013 RMK A01 T02181006  RH  022%=      5-min Rain = 0
KCA2 060121Z 00006KT 22/M01 A3013 RMK A01 T02181005  RH  023%=      5-min Rain = 0
KCA2 060122Z 01007KT 22/M01 A3013 RMK A01 T02171005  RH  023%=      5-min Rain = 0
KCA2 060123Z 01008KT 22/M01 A3013 RMK A01 T02171005  RH  023%=      5-min Rain = 0
KCA2 060124Z 01008KT 22/M00 A3013 RMK A01 T02171004  RH  023%=      5-min Rain = 0
KCA2 060125Z 01010KT 22/M00 A3013 RMK A01 T02181003  RH  023%=      5-min Rain = 0
KCA2 060126Z 02011KT 22/M00 A3013 RMK A01 T02181003  RH  023%=      5-min Rain = 0
KCA2 060127Z 01012KT 22/M00 A3013 RMK A01 T02181002  RH  023%=      5-min Rain = 0
KCA2 060128Z 02013KT 22/M00 A3013 RMK A01 T02181002  RH  023%=      5-min Rain = 0
KCA2 060129Z 01010KT 22/M00 A3013 RMK A01 T02191002  RH  023%=      5-min Rain = 0
KCA2 060130Z 02010KT 22/M00 A3013 RMK A01 T02181002  RH  023%=      5-min Rain = 0
KCA2 060131Z 01008KT 22/M00 A3014 RMK A01 T02181002  RH  023%=      5-min Rain = 0
KCA2 060132Z 00008KT 22/M00 A3014 RMK A01 T02171002  RH  023%=      5-min Rain = 0
KCA2 060133Z 01009G15KT 22/M00 A3014 RMK A01 T02161002  RH  023%=      5-min Rain = 0
KCA2 060134Z 02013KT 22/M00 A3014 RMK A01 T02161001  RH  023%=      5-min Rain = 0
KCA2 060135Z 02012KT 22/M00 A3014 RMK A01 T02171001  RH  023%=      5-min Rain = 0
KCA2 060136Z 01013KT 22/M00 A3014 RMK A01 T02171001  RH  023%=      5-min Rain = 0
KCA2 060137Z 01013KT 22/M00 A3014 RMK A01 T02171001  RH  023%=      5-min Rain = 0
KCA2 060138Z 01009KT 22/M00 A3014 RMK A01 T02171001  RH  023%=      5-min Rain = 0
KCA2 060139Z 02010KT 22/M00 A3014 RMK A01 T02171001  RH  023%=      5-min Rain = 0
KCA2 060140Z 00012KT 22/M00 A3014 RMK A01 T02171001  RH  023%=      5-min Rain = 0
KCA2 060141Z 01011KT 22/M00 A3014 RMK A01 T02171001  RH  024%=      5-min Rain = 0
KCA2 060142Z 02013KT 22/00 A3014 RMK A01 T021600-0  RH  024%=      5-min Rain = 0
KCA2 060143Z 01009KT 22/00 A3014 RMK A01 T021600-0  RH  024%=      5-min Rain = 0
KCA2 060144Z 01009KT 22/00 A3014 RMK A01 T021600-0  RH  024%=      5-min Rain = 0
KCA2 060145Z 01010KT 22/00 A3014 RMK A01 T02160000  RH  024%=      5-min Rain = 0
KCA2 060146Z 01008KT 22/00 A3015 RMK A01 T02160000  RH  024%=      5-min Rain = 0
KCA2 060147Z 36006KT 22/00 A3015 RMK A01 T021500-0  RH  024%=      5-min Rain = 0
KCA2 060148Z 00007KT 22/00 A3015 RMK A01 T021500-0  RH  024%=      5-min Rain = 0
KCA2 060149Z 01008KT 21/00 A3015 RMK A01 T02140000  RH  024%=      5-min Rain = 0
KCA2 060150Z 01008KT 21/00 A3015 RMK A01 T02140001  RH  024%=      5-min Rain = 0
KCA2 060151Z 01009KT 21/00 A3015 RMK A01 T02130001  RH  024%=      5-min Rain = 0
KCA2 060152Z 00008KT 21/00 A3015 RMK A01 T02130001  RH  024%=      5-min Rain = 0
KCA2 060153Z 36009KT 21/00 A3015 RMK A01 T02130001  RH  024%=      5-min Rain = 0
KCA2 060154Z 36008KT 21/00 A3015 RMK A01 T02130001  RH  024%=      5-min Rain = 0
KCA2 060155Z 00008KT 21/00 A3015 RMK A01 T02130002  RH  024%=      5-min Rain = 0
KCA2 060156Z 36010KT 21/00 A3015 RMK A01 T02120002  RH  024%=      5-min Rain = 0
KCA2 060157Z 36010KT 21/00 A3015 RMK A01 T02130002  RH  025%=      5-min Rain = 0
KCA2 060158Z 01008KT 21/00 A3015 RMK A01 T02130002  RH  025%=      5-min Rain = 0
KCA2 060159Z 36007KT 21/00 A3015 RMK A01 T02120002  RH  025%=      5-min Rain = 0
KCA2 060200Z 36010KT 21/00 A3015 RMK A01 T02110002  RH  025%=      5-min Rain = 0
KCA2 060201Z 36014KT 21/00 A3015 RMK A01 T02110003  RH  025%=      5-min Rain = 0
KCA2 060202Z 00013KT 21/00 A3016 RMK A01 T02110003  RH  025%=      5-min Rain = 0
KCA2 060203Z 00010G15KT 21/00 A3016 RMK A01 T02110004  RH  025%=      5-min Rain = 0
KCA2 060204Z 36015G21KT 21/00 A3016 RMK A01 T02110004  RH  025%=      5-min Rain = 0
KCA2 060205Z 36015KT 21/01 A3016 RMK A01 T02110005  RH  025%=      5-min Rain = 0
KCA2 060206Z 36014KT 21/01 A3016 RMK A01 T02110006  RH  026%=      5-min Rain = 0
KCA2 060207Z 35015KT 21/01 A3016 RMK A01 T02110006  RH  026%=      5-min Rain = 0
KCA2 060208Z 36015G21KT 21/01 A3016 RMK A01 T02110006  RH  026%=      5-min Rain = 0
KCA2 060209Z 36014KT 21/01 A3016 RMK A01 T02110007  RH  026%=      5-min Rain = 0
KCA2 060210Z 36015KT 21/01 A3016 RMK A01 T02110007  RH  026%=      5-min Rain = 0
KCA2 060211Z 35014KT 21/01 A3016 RMK A01 T02100008  RH  026%=      5-min Rain = 0
KCA2 060212Z 00014KT 21/01 A3016 RMK A01 T02100008  RH  026%=      5-min Rain = 0
KCA2 060213Z 00014KT 21/01 A3016 RMK A01 T02090008  RH  026%=      5-min Rain = 0
KCA2 060214Z 00014KT 21/01 A3016 RMK A01 T02090008  RH  026%=      5-min Rain = 0
KCA2 060215Z 01008KT 21/01 A3017 RMK A01 T02090008  RH  026%=      5-min Rain = 0
KCA2 060216Z 36009KT 21/01 A3017 RMK A01 T02090008  RH  026%=      5-min Rain = 0
KCA2 060217Z 00009KT 21/01 A3017 RMK A01 T02080008  RH  026%=      5-min Rain = 0
KCA2 060218Z 36010KT 21/01 A3017 RMK A01 T02080009  RH  027%=      5-min Rain = 0
KCA2 060219Z 01009KT 21/01 A3017 RMK A01 T02070009  RH  027%=      5-min Rain = 0
KCA2 060220Z 00009KT 21/01 A3017 RMK A01 T02070009  RH  027%=      5-min Rain = 0
KCA2 060221Z 01010KT 21/01 A3017 RMK A01 T02070010  RH  027%=      5-min Rain = 0
KCA2 060222Z 01010G15KT 21/01 A3017 RMK A01 T02060010  RH  027%=      5-min Rain = 0
KCA2 060223Z 02012KT 21/01 A3017 RMK A01 T02070011  RH  027%=      5-min Rain = 0
KCA2 060224Z 36010KT 21/01 A3017 RMK A01 T02070011  RH  027%=      5-min Rain = 0
KCA2 060225Z 00013KT 21/01 A3017 RMK A01 T02060011  RH  027%=      5-min Rain = 0
KCA2 060226Z 01015KT 21/01 A3017 RMK A01 T02060012  RH  027%=      5-min Rain = 0
KCA2 060227Z 01014KT 21/01 A3017 RMK A01 T02060013  RH  028%=      5-min Rain = 0
KCA2 060228Z 01014G19KT 21/01 A3017 RMK A01 T02060013  RH  028%=      5-min Rain = 0
KCA2 060229Z 01014KT 21/01 A3017 RMK A01 T02060013  RH  028%=      5-min Rain = 0
KCA2 060230Z 00012KT 21/01 A3017 RMK A01 T02060014  RH  028%=      5-min Rain = 0
KCA2 060231Z 35010KT 21/01 A3018 RMK A01 T02050013  RH  028%=      5-min Rain = 0
KCA2 060232Z 35014G19KT 21/01 A3018 RMK A01 T02050014  RH  028%=      5-min Rain = 0
KCA2 060233Z 01014KT 20/01 A3018 RMK A01 T02040014  RH  028%=      5-min Rain = 0
KCA2 060234Z 02012KT 20/01 A3018 RMK A01 T02040014  RH  028%=      5-min Rain = 0
KCA2 060235Z 00009KT 20/01 A3018 RMK A01 T02040014  RH  028%=      5-min Rain = 0
KCA2 060236Z 00010KT 20/01 A3018 RMK A01 T02030014  RH  028%=      5-min Rain = 0
KCA2 060237Z 36009KT 20/02 A3018 RMK A01 T02030015  RH  028%=      5-min Rain = 0
KCA2 060238Z 00010KT 20/02 A3018 RMK A01 T02030015  RH  029%=      5-min Rain = 0
KCA2 060239Z 01009KT 20/02 A3018 RMK A01 T02020015  RH  029%=      5-min Rain = 0
KCA2 060240Z 36008KT 20/02 A3018 RMK A01 T02020015  RH  029%=      5-min Rain = 0
KCA2 060241Z 36011KT 20/02 A3018 RMK A01 T02020015  RH  029%=      5-min Rain = 0
KCA2 060242Z 01012KT 20/02 A3018 RMK A01 T02020015  RH  029%=      5-min Rain = 0
KCA2 060243Z 01010KT 20/02 A3018 RMK A01 T02020015  RH  029%=      5-min Rain = 0
KCA2 060244Z 01012KT 20/02 A3018 RMK A01 T02010016  RH  029%=      5-min Rain = 0
KCA2 060245Z 00015KT 20/02 A3018 RMK A01 T02010016  RH  029%=      5-min Rain = 0
KCA2 060246Z 01015KT 20/02 A3019 RMK A01 T02010017  RH  029%=      5-min Rain = 0
KCA2 060247Z 01014KT 20/02 A3019 RMK A01 T02010017  RH  029%=      5-min Rain = 0
KCA2 060248Z 02012KT 20/02 A3019 RMK A01 T02010017  RH  029%=      5-min Rain = 0
KCA2 060249Z 02014KT 20/02 A3019 RMK A01 T02000017  RH  030%=      5-min Rain = 0
KCA2 060250Z 02014KT 20/02 A3019 RMK A01 T02000018  RH  030%=      5-min Rain = 0
KCA2 060251Z 02013KT 20/02 A3019 RMK A01 T01990019  RH  030%=      5-min Rain = 0
KCA2 060252Z 01015KT 20/02 A3019 RMK A01 T01990019  RH  030%=      5-min Rain = 0
KCA2 060253Z 01011KT 20/02 A3019 RMK A01 T01990019  RH  030%=      5-min Rain = 0
KCA2 060254Z 01014G19KT 20/02 A3019 RMK A01 T01980019  RH  030%=      5-min Rain = 0
KCA2 060255Z 01016KT 20/02 A3019 RMK A01 T01980019  RH  030%=      5-min Rain = 0
KCA2 060256Z 01017KT 20/02 A3019 RMK A01 T01980020  RH  031%=      5-min Rain = 0
KCA2 060257Z 00015KT 20/02 A3019 RMK A01 T01980020  RH  031%=      5-min Rain = 0
KCA2 060258Z 01013KT 20/02 A3019 RMK A01 T01980021  RH  031%=      5-min Rain = 0
KCA2 060259Z 01011KT 20/02 A302 RMK A01 T01970020  RH  031%=      5-min Rain = 0
KCA2 060300Z 01010KT 20/02 A302 RMK A01 T01970020  RH  031%=      5-min Rain = 0
KCA2 060301Z 01010KT 20/02 A302 RMK A01 T01960020  RH  031%=      5-min Rain = 0
KCA2 060302Z 01008KT 20/02 A302 RMK A01 T01960020  RH  031%=      5-min Rain = 0
KCA2 060303Z 00010KT 20/02 A302 RMK A01 T01960020  RH  031%=      5-min Rain = 0
KCA2 060304Z 01012KT 20/02 A302 RMK A01 T01960020  RH  031%=      5-min Rain = 0
KCA2 060305Z 01011G17KT 20/02 A302 RMK A01 T01950020  RH  031%=      5-min Rain = 0
KCA2 060306Z 00012KT 20/02 A302 RMK A01 T01950020  RH  031%=      5-min Rain = 0
KCA2 060307Z 00011KT 20/02 A302 RMK A01 T01950021  RH  031%=      5-min Rain = 0
KCA2 060308Z 36011KT 20/02 A302 RMK A01 T01950021  RH  031%=      5-min Rain = 0
KCA2 060309Z 00013KT 20/02 A302 RMK A01 T01950021  RH  031%=      5-min Rain = 0
KCA2 060310Z 00012KT 20/02 A302 RMK A01 T01950021  RH  031%=      5-min Rain = 0
KCA2 060311Z 02012KT 20/02 A302 RMK A01 T01950021  RH  031%=      5-min Rain = 0
KCA2 060312Z 02013G18KT 19/02 A3021 RMK A01 T01940021  RH  032%=      5-min Rain = 0
KCA2 060313Z 01013G19KT 19/02 A3021 RMK A01 T01940021  RH  032%=      5-min Rain = 0
KCA2 060314Z 01012G17KT 19/02 A3021 RMK A01 T01940022  RH  032%=      5-min Rain = 0
KCA2 060315Z 02015KT 19/02 A3021 RMK A01 T01930022  RH  032%=      5-min Rain = 0
KCA2 060316Z 02017G22KT 19/02 A3021 RMK A01 T01930022  RH  032%=      5-min Rain = 0
KCA2 060317Z 02016KT 19/02 A3021 RMK A01 T01930022  RH  032%=      5-min Rain = 0
KCA2 060318Z 01012KT 19/02 A3021 RMK A01 T01930022  RH  032%=      5-min Rain = 0
KCA2 060319Z 01013KT 19/02 A3021 RMK A01 T01920022  RH  032%=      5-min Rain = 0
KCA2 060320Z 01010KT 19/02 A3021 RMK A01 T01920022  RH  032%=      5-min Rain = 0
KCA2 060321Z 00008KT 19/02 A3021 RMK A01 T01920022  RH  032%=      5-min Rain = 0
KCA2 060322Z 00009KT 19/02 A3021 RMK A01 T01910022  RH  032%=      5-min Rain = 0
KCA2 060323Z 00009KT 19/02 A3021 RMK A01 T01910022  RH  032%=      5-min Rain = 0
KCA2 060324Z 02012KT 19/02 A3021 RMK A01 T01910022  RH  032%=      5-min Rain = 0
KCA2 060325Z 01011KT 19/02 A3021 RMK A01 T01910022  RH  032%=      5-min Rain = 0
KCA2 060326Z 00009KT 19/02 A3021 RMK A01 T01900022  RH  032%=      5-min Rain = 0
KCA2 060327Z 36009KT 19/02 A3021 RMK A01 T01900021  RH  032%=      5-min Rain = 0
KCA2 060328Z 35008KT 19/02 A3022 RMK A01 T01900021  RH  033%=      5-min Rain = 0
KCA2 060329Z 01008KT 19/02 A3022 RMK A01 T01890021  RH  033%=      5-min Rain = 0
KCA2 060330Z 01011KT 19/02 A3022 RMK A01 T01890022  RH  033%=      5-min Rain = 0
KCA2 060331Z 01012KT 19/02 A3022 RMK A01 T01900022  RH  033%=      5-min Rain = 0
KCA2 060332Z 01012KT 19/02 A3022 RMK A01 T01890021  RH  033%=      5-min Rain = 0
KCA2 060333Z 01012G18KT 19/02 A3022 RMK A01 T01890021  RH  033%=      5-min Rain = 0
KCA2 060334Z 02011KT 19/02 A3022 RMK A01 T01890021  RH  033%=      5-min Rain = 0
KCA2 060335Z 00011KT 19/02 A3022 RMK A01 T01890021  RH  033%=      5-min Rain = 0
KCA2 060336Z 00011KT 19/02 A3022 RMK A01 T01890021  RH  033%=      5-min Rain = 0
KCA2 060337Z 36010KT 19/02 A3022 RMK A01 T01890021  RH  033%=      5-min Rain = 0
KCA2 060338Z 36011KT 19/02 A3022 RMK A01 T01890021  RH  033%=      5-min Rain = 0
KCA2 060339Z 35011KT 19/02 A3022 RMK A01 T01880021  RH  033%=      5-min Rain = 0
KCA2 060340Z 35012G17KT 19/02 A3022 RMK A01 T01880021  RH  033%=      5-min Rain = 0
KCA2 060341Z 01014KT 19/02 A3022 RMK A01 T01880021  RH  033%=      5-min Rain = 0
KCA2 060342Z 01017KT 19/02 A3022 RMK A01 T01880021  RH  033%=      5-min Rain = 0
KCA2 060343Z 01017KT 19/02 A3022 RMK A01 T01880021  RH  033%=      5-min Rain = 0
KCA2 060344Z 00013KT 19/02 A3022 RMK A01 T01880021  RH  033%=      5-min Rain = 0
KCA2 060345Z 01012KT 19/02 A3022 RMK A01 T01880021  RH  033%=      5-min Rain = 0
KCA2 060346Z 00016KT 19/02 A3022 RMK A01 T01880021  RH  033%=      5-min Rain = 0
KCA2 060347Z 36011KT 19/02 A3022 RMK A01 T01880021  RH  033%=      5-min Rain = 0
KCA2 060348Z 00013KT 19/02 A3022 RMK A01 T01880021  RH  033%=      5-min Rain = 0
KCA2 060349Z 36014KT 19/02 A3022 RMK A01 T01880021  RH  033%=      5-min Rain = 0
KCA2 060350Z 35014KT 19/02 A3022 RMK A01 T01870021  RH  033%=      5-min Rain = 0
KCA2 060351Z 00012KT 19/02 A3022 RMK A01 T01870020  RH  033%=      5-min Rain = 0
KCA2 060352Z 00011KT 19/02 A3023 RMK A01 T01870020  RH  033%=      5-min Rain = 0
KCA2 060353Z 35009KT 19/02 A3023 RMK A01 T01860020  RH  033%=      5-min Rain = 0
KCA2 060354Z 34009KT 19/02 A3022 RMK A01 T01860021  RH  033%=      5-min Rain = 0
KCA2 060355Z 35010KT 19/02 A3023 RMK A01 T01860020  RH  033%=      5-min Rain = 0
KCA2 060356Z 00011KT 19/02 A3023 RMK A01 T01850021  RH  033%=      5-min Rain = 0
KCA2 060357Z 01012KT 19/02 A3023 RMK A01 T01850021  RH  033%=      5-min Rain = 0
KCA2 060358Z 36014KT 19/02 A3023 RMK A01 T01850021  RH  033%=      5-min Rain = 0
KCA2 060359Z 36012KT 19/02 A3023 RMK A01 T01850021  RH  033%=      5-min Rain = 0
KCA2 060400Z 36012KT 19/02 A3023 RMK A01 T01850021  RH  033%=      5-min Rain = 0
KCA2 060401Z 36010KT 19/02 A3023 RMK A01 T01850021  RH  033%=      5-min Rain = 0
KCA2 060402Z 00013KT 19/02 A3023 RMK A01 T01850020  RH  033%=      5-min Rain = 0
KCA2 060403Z 00012KT 19/02 A3023 RMK A01 T01850020  RH  033%=      5-min Rain = 0
KCA2 060404Z 00012KT 18/02 A3023 RMK A01 T01840020  RH  033%=      5-min Rain = 0
KCA2 060405Z 36010KT 18/02 A3023 RMK A01 T01840020  RH  033%=      5-min Rain = 0
KCA2 060406Z 36010KT 18/02 A3023 RMK A01 T01840020  RH  033%=      5-min Rain = 0
KCA2 060407Z 36013KT 18/02 A3023 RMK A01 T01830020  RH  034%=      5-min Rain = 0
KCA2 060408Z 36015KT 18/02 A3023 RMK A01 T01830020  RH  034%=      5-min Rain = 0
KCA2 060409Z 35012KT 18/02 A3023 RMK A01 T01840020  RH  034%=      5-min Rain = 0
KCA2 060410Z 35010KT 18/02 A3023 RMK A01 T01830020  RH  034%=      5-min Rain = 0
KCA2 060411Z 35010KT 18/02 A3023 RMK A01 T01830020  RH  034%=      5-min Rain = 0
KCA2 060412Z 36013KT 18/02 A3023 RMK A01 T01830020  RH  034%=      5-min Rain = 0
KCA2 060413Z 35012KT 18/02 A3023 RMK A01 T01820020  RH  034%=      5-min Rain = 0
KCA2 060414Z 36012KT 18/02 A3023 RMK A01 T01820020  RH  034%=      5-min Rain = 0
KCA2 060415Z 36011KT 18/02 A3023 RMK A01 T01820020  RH  034%=      5-min Rain = 0
KCA2 060416Z 36011KT 18/02 A3023 RMK A01 T01820020  RH  034%=      5-min Rain = 0
KCA2 060417Z 00012KT 18/02 A3024 RMK A01 T01830021  RH  034%=      5-min Rain = 0
KCA2 060418Z 36010KT 18/02 A3024 RMK A01 T01820021  RH  034%=      5-min Rain = 0
KCA2 060419Z 35008KT 18/02 A3024 RMK A01 T01820021  RH  034%=      5-min Rain = 0
KCA2 060420Z 35009KT 18/02 A3024 RMK A01 T01820020  RH  034%=      5-min Rain = 0
KCA2 060421Z 36010KT 18/02 A3024 RMK A01 T01810021  RH  034%=      5-min Rain = 0
KCA2 060422Z 36012KT 18/02 A3024 RMK A01 T01820021  RH  034%=      5-min Rain = 0
KCA2 060423Z 35013KT 18/02 A3024 RMK A01 T01820021  RH  034%=      5-min Rain = 0
KCA2 060424Z 36014KT 18/02 A3024 RMK A01 T01820021  RH  034%=      5-min Rain = 0
KCA2 060425Z 35015KT 18/02 A3024 RMK A01 T01810021  RH  034%=      5-min Rain = 0
KCA2 060426Z 35011KT 18/02 A3024 RMK A01 T01810021  RH  034%=      5-min Rain = 0
KCA2 060427Z 35012KT 18/02 A3024 RMK A01 T01820021  RH  034%=      5-min Rain = 0
KCA2 060428Z 35011KT 18/02 A3024 RMK A01 T01810021  RH  034%=      5-min Rain = 0
KCA2 060429Z 34010KT 18/02 A3024 RMK A01 T01810021  RH  034%=      5-min Rain = 0
KCA2 060430Z 34012KT 18/02 A3024 RMK A01 T01800021  RH  034%=      5-min Rain = 0
KCA2 060431Z 34011G18KT 18/02 A3024 RMK A01 T01800021  RH  034%=      5-min Rain = 0
KCA2 060432Z 36016KT 18/02 A3024 RMK A01 T01800020  RH  034%=      5-min Rain = 0
KCA2 060433Z 00013KT 18/02 A3024 RMK A01 T01800019  RH  034%=      5-min Rain = 0
KCA2 060434Z 36015KT 18/02 A3024 RMK A01 T01810020  RH  034%=      5-min Rain = 0
KCA2 060435Z 34013KT 18/02 A3024 RMK A01 T01810020  RH  034%=      5-min Rain = 0
KCA2 060436Z 34012KT 18/02 A3024 RMK A01 T01810020  RH  034%=      5-min Rain = 0
KCA2 060437Z 35013KT 18/02 A3024 RMK A01 T01800020  RH  034%=      5-min Rain = 0
KCA2 060438Z 34011KT 18/02 A3024 RMK A01 T01800020  RH  034%=      5-min Rain = 0
KCA2 060439Z 34012KT 18/02 A3024 RMK A01 T01800019  RH  034%=      5-min Rain = 0
KCA2 060440Z 35014KT 18/02 A3024 RMK A01 T01800019  RH  034%=      5-min Rain = 0
KCA2 060441Z 00014KT 18/02 A3024 RMK A01 T01800019  RH  034%=      5-min Rain = 0
KCA2 060442Z 36014KT 18/02 A3024 RMK A01 T01800018  RH  034%=      5-min Rain = 0
KCA2 060443Z 36010KT 18/02 A3024 RMK A01 T01800019  RH  034%=      5-min Rain = 0
KCA2 060444Z 00011G16KT 18/02 A3024 RMK A01 T01800018  RH  034%=      5-min Rain = 0
KCA2 060445Z 36012KT 18/02 A3024 RMK A01 T01790018  RH  034%=      5-min Rain = 0
KCA2 060446Z 35012KT 18/02 A3024 RMK A01 T01790019  RH  034%=      5-min Rain = 0
KCA2 060447Z 35012KT 18/02 A3024 RMK A01 T01790018  RH  034%=      5-min Rain = 0
KCA2 060448Z 35011KT 18/02 A3024 RMK A01 T01790018  RH  034%=      5-min Rain = 0
KCA2 060449Z 35014KT 18/02 A3024 RMK A01 T01790019  RH  034%=      5-min Rain = 0
KCA2 060450Z 35011KT 18/02 A3024 RMK A01 T01790019  RH  034%=      5-min Rain = 0
KCA2 060451Z 35011KT 18/02 A3024 RMK A01 T01790019  RH  034%=      5-min Rain = 0
KCA2 060452Z 36011KT 18/02 A3024 RMK A01 T01790019  RH  034%=      5-min Rain = 0
KCA2 060453Z 35013G18KT 18/02 A3024 RMK A01 T01790019  RH  034%=      5-min Rain = 0
KCA2 060454Z 35013G19KT 18/02 A3024 RMK A01 T01780019  RH  034%=      5-min Rain = 0
KCA2 060455Z 35012KT 18/02 A3024 RMK A01 T01780019  RH  034%=      5-min Rain = 0
KCA2 060456Z 36012G17KT 18/02 A3024 RMK A01 T01780019  RH  034%=      5-min Rain = 0
KCA2 060457Z 35012KT 18/02 A3024 RMK A01 T01780019  RH  034%=      5-min Rain = 0
KCA2 060458Z 36010KT 18/02 A3025 RMK A01 T01790020  RH  034%=      5-min Rain = 0
KCA2 060459Z 00008G15KT 18/02 A3025 RMK A01 T01780019  RH  034%=      5-min Rain = 0
KCA2 060500Z 35013KT 18/02 A3025 RMK A01 T01780020  RH  035%=      5-min Rain = 0
KCA2 060501Z 35010KT 18/02 A3025 RMK A01 T01780020  RH  035%=      5-min Rain = 0
KCA2 060502Z 36011KT 18/02 A3025 RMK A01 T01780020  RH  035%=      5-min Rain = 0
KCA2 060503Z 33010KT 18/02 A3025 RMK A01 T01780020  RH  035%=      5-min Rain = 0
KCA2 060504Z 36010KT 18/02 A3025 RMK A01 T01780020  RH  035%=      5-min Rain = 0
KCA2 060505Z 00014KT 18/02 A3025 RMK A01 T01770020  RH  035%=      5-min Rain = 0
KCA2 060506Z 00013KT 18/02 A3025 RMK A01 T01770020  RH  035%=      5-min Rain = 0
KCA2 060507Z 36011KT 18/02 A3025 RMK A01 T01780020  RH  035%=      5-min Rain = 0
KCA2 060508Z 34010KT 18/02 A3025 RMK A01 T01770020  RH  035%=      5-min Rain = 0
KCA2 060509Z 34008KT 18/02 A3025 RMK A01 T01770020  RH  035%=      5-min Rain = 0
KCA2 060510Z 35007KT 18/02 A3025 RMK A01 T01760020  RH  035%=      5-min Rain = 0
KCA2 060511Z 35009KT 18/02 A3025 RMK A01 T01760020  RH  035%=      5-min Rain = 0
KCA2 060512Z 35011G16KT 18/02 A3025 RMK A01 T01760020  RH  035%=      5-min Rain = 0
KCA2 060513Z 35012KT 18/02 A3024 RMK A01 T01760020  RH  035%=      5-min Rain = 0
KCA2 060514Z 36013KT 18/02 A3025 RMK A01 T01760020  RH  035%=      5-min Rain = 0
KCA2 060515Z 00010KT 18/02 A3025 RMK A01 T01770020  RH  035%=      5-min Rain = 0
KCA2 060516Z 34011G16KT 18/02 A3025 RMK A01 T01760020  RH  035%=      5-min Rain = 0
KCA2 060517Z 35012KT 18/02 A3025 RMK A01 T01760020  RH  035%=      5-min Rain = 0
KCA2 060518Z 34010KT 18/02 A3025 RMK A01 T01760020  RH  035%=      5-min Rain = 0
KCA2 060519Z 35010KT 18/02 A3025 RMK A01 T01760020  RH  035%=      5-min Rain = 0
KCA2 060520Z 35008KT 18/02 A3025 RMK A01 T01760020  RH  035%=      5-min Rain = 0
KCA2 060521Z 35007KT 18/02 A3025 RMK A01 T01750020  RH  035%=      5-min Rain = 0
KCA2 060522Z 34008KT 18/02 A3025 RMK A01 T01750020  RH  035%=      5-min Rain = 0
KCA2 060523Z 34011KT 17/02 A3025 RMK A01 T01740020  RH  036%=      5-min Rain = 0
KCA2 060524Z 34012KT 17/02 A3025 RMK A01 T01740020  RH  036%=      5-min Rain = 0
KCA2 060525Z 35010KT 18/02 A3025 RMK A01 T01750020  RH  035%=      5-min Rain = 0
KCA2 060526Z 34010KT 18/02 A3025 RMK A01 T01750020  RH  035%=      5-min Rain = 0
KCA2 060527Z 35009KT 18/02 A3024 RMK A01 T01750020  RH  035%=      5-min Rain = 0
KCA2 060528Z 00011KT 18/02 A3025 RMK A01 T01750020  RH  035%=      5-min Rain = 0
KCA2 060529Z 33009KT 18/02 A3024 RMK A01 T01750021  RH  036%=      5-min Rain = 0
KCA2 060530Z 33008KT 18/02 A3025 RMK A01 T01750021  RH  036%=      5-min Rain = 0
KCA2 060531Z 32008KT 17/02 A3024 RMK A01 T01740021  RH  036%=      5-min Rain = 0
KCA2 060532Z 34007KT 17/02 A3025 RMK A01 T01740020  RH  036%=      5-min Rain = 0
KCA2 060533Z 35010KT 17/02 A3024 RMK A01 T01730020  RH  036%=      5-min Rain = 0
KCA2 060534Z 35008KT 17/02 A3024 RMK A01 T01730020  RH  036%=      5-min Rain = 0
KCA2 060535Z 32006KT 17/02 A3025 RMK A01 T01730020  RH  036%=      5-min Rain = 0
KCA2 060536Z 32009KT 17/02 A3024 RMK A01 T01720020  RH  036%=      5-min Rain = 0
KCA2 060537Z 33008KT 17/02 A3025 RMK A01 T01720020  RH  036%=      5-min Rain = 0
KCA2 060538Z 33006KT 17/02 A3025 RMK A01 T01720020  RH  036%=      5-min Rain = 0
KCA2 060539Z 33007KT 17/02 A3025 RMK A01 T01710020  RH  036%=      5-min Rain = 0
KCA2 060540Z 34007KT 17/02 A3025 RMK A01 T01710020  RH  036%=      5-min Rain = 0
KCA2 060541Z 36008KT 17/02 A3025 RMK A01 T01710020  RH  036%=      5-min Rain = 0
KCA2 060542Z 34010KT 17/02 A3025 RMK A01 T01710020  RH  036%=      5-min Rain = 0
KCA2 060543Z 35012KT 17/02 A3025 RMK A01 T01700020  RH  036%=      5-min Rain = 0
KCA2 060544Z 01015KT 17/02 A3025 RMK A01 T01710021  RH  036%=      5-min Rain = 0
KCA2 060545Z 00015KT 17/02 A3025 RMK A01 T01720021  RH  036%=      5-min Rain = 0
KCA2 060546Z 36012KT 17/02 A3025 RMK A01 T01730021  RH  036%=      5-min Rain = 0
KCA2 060547Z 00010KT 17/02 A3025 RMK A01 T01730021  RH  036%=      5-min Rain = 0
KCA2 060548Z 35012KT 17/02 A3025 RMK A01 T01720021  RH  036%=      5-min Rain = 0
KCA2 060549Z 01014KT 17/02 A3025 RMK A01 T01720021  RH  036%=      5-min Rain = 0
KCA2 060550Z 36014KT 17/02 A3025 RMK A01 T01710021  RH  036%=      5-min Rain = 0
KCA2 060551Z 35011KT 17/02 A3025 RMK A01 T01710021  RH  037%=      5-min Rain = 0
KCA2 060552Z 36012KT 17/02 A3025 RMK A01 T01700021  RH  037%=      5-min Rain = 0
KCA2 060553Z 36014KT 17/02 A3025 RMK A01 T01690021  RH  037%=      5-min Rain = 0
KCA2 060554Z 36013KT 17/02 A3025 RMK A01 T01690021  RH  037%=      5-min Rain = 0
KCA2 060555Z 36014KT 17/02 A3025 RMK A01 T01680021  RH  037%=      5-min Rain = 0
KCA2 060556Z 01013KT 17/02 A3025 RMK A01 T01680020  RH  037%=      5-min Rain = 0
KCA2 060557Z 00011KT 17/02 A3025 RMK A01 T01680020  RH  037%=      5-min Rain = 0
KCA2 060558Z 36010KT 17/02 A3025 RMK A01 T01670020  RH  037%=      5-min Rain = 0
KCA2 060559Z 35011KT 17/02 A3025 RMK A01 T01670020  RH  037%=      5-min Rain = 0

Page generated in 0.0643 seconds.